Observation data for Umbarger on 11/11/2019      Previous  Date       Current Mesonet Observations  Soil Data  Daily Summary Page  Observations in Plain Language
KUM1 110600Z 00011KT 08/M01 A2991 RMK A01 T00791012  RH  053%=      5-min Rain = 0
KUM1 110601Z 00010KT 08/M01 A2991 RMK A01 T00791012  RH  053%=      5-min Rain = 0
KUM1 110602Z 00011KT 08/M01 A2991 RMK A01 T00791012  RH  053%=      5-min Rain = 0
KUM1 110603Z 00011KT 08/M01 A2991 RMK A01 T00781012  RH  053%=      5-min Rain = 0
KUM1 110604Z 00010KT 08/M01 A2991 RMK A01 T00781012  RH  053%=      5-min Rain = 0
KUM1 110605Z 36010KT 08/M01 A2992 RMK A01 T00781012  RH  053%=      5-min Rain = 0
KUM1 110606Z 36010KT 08/M01 A2992 RMK A01 T00771012  RH  053%=      5-min Rain = 0
KUM1 110607Z 36009KT 08/M01 A2992 RMK A01 T00771012  RH  053%=      5-min Rain = 0
KUM1 110608Z 35009KT 08/M01 A2992 RMK A01 T00771012  RH  053%=      5-min Rain = 0
KUM1 110609Z 35009KT 08/M01 A2992 RMK A01 T00761012  RH  053%=      5-min Rain = 0
KUM1 110610Z 35009KT 08/M01 A2992 RMK A01 T00751013  RH  054%=      5-min Rain = 0
KUM1 110611Z 36009KT 07/M01 A2992 RMK A01 T00741013  RH  054%=      5-min Rain = 0
KUM1 110612Z 36009KT 07/M01 A2992 RMK A01 T00741013  RH  054%=      5-min Rain = 0
KUM1 110613Z 36008KT 07/M01 A2992 RMK A01 T00731013  RH  054%=      5-min Rain = 0
KUM1 110614Z 36008KT 07/M01 A2992 RMK A01 T00731013  RH  055%=      5-min Rain = 0
KUM1 110615Z 36008KT 07/M01 A2992 RMK A01 T00721013  RH  055%=      5-min Rain = 0
KUM1 110616Z 36008KT 07/M01 A2992 RMK A01 T00721013  RH  055%=      5-min Rain = 0
KUM1 110617Z 36008KT 07/M01 A2992 RMK A01 T00721013  RH  055%=      5-min Rain = 0
KUM1 110618Z 35008KT 07/M01 A2992 RMK A01 T00711013  RH  055%=      5-min Rain = 0
KUM1 110619Z 35008KT 07/M01 A2992 RMK A01 T00711013  RH  055%=      5-min Rain = 0
KUM1 110620Z 35009KT 07/M01 A2992 RMK A01 T00701013  RH  055%=      5-min Rain = 0
KUM1 110621Z 35009KT 07/M01 A2992 RMK A01 T00701013  RH  056%=      5-min Rain = 0
KUM1 110622Z 36010KT 07/M01 A2992 RMK A01 T00691013  RH  056%=      5-min Rain = 0
KUM1 110623Z 36010KT 07/M01 A2992 RMK A01 T00691013  RH  056%=      5-min Rain = 0
KUM1 110624Z 36010KT 07/M01 A2992 RMK A01 T00701013  RH  056%=      5-min Rain = 0
KUM1 110625Z 36010KT 07/M01 A2992 RMK A01 T00711013  RH  055%=      5-min Rain = 0
KUM1 110626Z 36011KT 07/M01 A2992 RMK A01 T00711013  RH  055%=      5-min Rain = 0
KUM1 110627Z 36011KT 07/M01 A2992 RMK A01 T00731013  RH  055%=      5-min Rain = 0
KUM1 110628Z 36010KT 07/M01 A2992 RMK A01 T00731013  RH  054%=      5-min Rain = 0
KUM1 110629Z 35011KT 07/M01 A2992 RMK A01 T00731013  RH  054%=      5-min Rain = 0
KUM1 110630Z 36011KT 07/M01 A2992 RMK A01 T00741013  RH  054%=      5-min Rain = 0
KUM1 110631Z 36011KT 08/M01 A2992 RMK A01 T00751012  RH  054%=      5-min Rain = 0
KUM1 110632Z 36012KT 08/M01 A2992 RMK A01 T00751012  RH  054%=      5-min Rain = 0
KUM1 110633Z 35012KT 07/M01 A2992 RMK A01 T00741012  RH  054%=      5-min Rain = 0
KUM1 110634Z 35013KT 07/M01 A2992 RMK A01 T00721013  RH  055%=      5-min Rain = 0
KUM1 110635Z 35013KT 07/M01 A2992 RMK A01 T00701013  RH  055%=      5-min Rain = 0
KUM1 110636Z 35014KT 07/M01 A2992 RMK A01 T00701013  RH  056%=      5-min Rain = 0
KUM1 110637Z 36014KT 07/M01 A2992 RMK A01 T00691012  RH  056%=      5-min Rain = 0
KUM1 110638Z 36015KT 07/M01 A2992 RMK A01 T00701011  RH  057%=      5-min Rain = 0
KUM1 110639Z 00015KT 07/M01 A2992 RMK A01 T00701010  RH  057%=      5-min Rain = 0
KUM1 110640Z 00015KT 07/M01 A2992 RMK A01 T00691009  RH  057%=      5-min Rain = 0
KUM1 110641Z 00015KT 07/M01 A2992 RMK A01 T00691009  RH  058%=      5-min Rain = 0
KUM1 110642Z 00016KT 07/M01 A2992 RMK A01 T00691008  RH  058%=      5-min Rain = 0
KUM1 110643Z 36015KT 07/M01 A2992 RMK A01 T00691008  RH  058%=      5-min Rain = 0
KUM1 110644Z 36014KT 07/M01 A2992 RMK A01 T00691007  RH  058%=      5-min Rain = 0
KUM1 110645Z 36015KT 07/M01 A2992 RMK A01 T00681007  RH  058%=      5-min Rain = 0
KUM1 110646Z 00015KT 07/M01 A2992 RMK A01 T00681007  RH  059%=      5-min Rain = 0
KUM1 110647Z 00014KT 07/M01 A2992 RMK A01 T00681006  RH  059%=      5-min Rain = 0
KUM1 110648Z 00015KT 07/M01 A2992 RMK A01 T00681006  RH  059%=      5-min Rain = 0
KUM1 110649Z 01014KT 07/M01 A2992 RMK A01 T00681006  RH  059%=      5-min Rain = 0
KUM1 110650Z 00014KT 07/M01 A2992 RMK A01 T00681006  RH  060%=      5-min Rain = 0
KUM1 110651Z 01015KT 07/M01 A2992 RMK A01 T00681005  RH  060%=      5-min Rain = 0
KUM1 110652Z 00015KT 07/M01 A2992 RMK A01 T00681005  RH  060%=      5-min Rain = 0
KUM1 110653Z 01015KT 07/M01 A2992 RMK A01 T00681005  RH  060%=      5-min Rain = 0
KUM1 110654Z 00015KT 07/M00 A2993 RMK A01 T00681004  RH  060%=      5-min Rain = 0
KUM1 110655Z 01014KT 07/M00 A2993 RMK A01 T00681004  RH  060%=      5-min Rain = 0
KUM1 110656Z 01014KT 07/M00 A2993 RMK A01 T00681004  RH  060%=      5-min Rain = 0
KUM1 110657Z 01015KT 07/M00 A2993 RMK A01 T00681003  RH  061%=      5-min Rain = 0
KUM1 110658Z 01014KT 07/M00 A2993 RMK A01 T00681002  RH  061%=      5-min Rain = 0
KUM1 110659Z 01015KT 07/M00 A2993 RMK A01 T00681002  RH  061%=      5-min Rain = 0
KUM1 110700Z 01014KT 07/M00 A2993 RMK A01 T00681002  RH  061%=      5-min Rain = 0
KUM1 110701Z 01013KT 07/M00 A2993 RMK A01 T00671002  RH  061%=      5-min Rain = 0
KUM1 110702Z 01013KT 07/M00 A2993 RMK A01 T00671002  RH  061%=      5-min Rain = 0
KUM1 110703Z 00012KT 07/M00 A2994 RMK A01 T00671002  RH  062%=      5-min Rain = 0
KUM1 110704Z 00011KT 07/M00 A2994 RMK A01 T00661002  RH  062%=      5-min Rain = 0
KUM1 110705Z 00011KT 07/M00 A2994 RMK A01 T00651003  RH  062%=      5-min Rain = 0
KUM1 110706Z 01012KT 06/M00 A2994 RMK A01 T00641003  RH  062%=      5-min Rain = 0
KUM1 110707Z 01012KT 06/M00 A2994 RMK A01 T00631003  RH  063%=      5-min Rain = 0
KUM1 110708Z 01013KT 06/M00 A2994 RMK A01 T00631003  RH  063%=      5-min Rain = 0
KUM1 110709Z 01012KT 06/M00 A2994 RMK A01 T00631003  RH  063%=      5-min Rain = 0
KUM1 110710Z 01012KT 06/M00 A2994 RMK A01 T00631002  RH  063%=      5-min Rain = 0
KUM1 110711Z 00011KT 06/M00 A2994 RMK A01 T00621002  RH  064%=      5-min Rain = 0
KUM1 110712Z 00012G17KT 06/M00 A2994 RMK A01 T00611003  RH  064%=      5-min Rain = 0
KUM1 110713Z 00013G18KT 06/M00 A2994 RMK A01 T00611002  RH  064%=      5-min Rain = 0
KUM1 110714Z 00015KT 06/M00 A2994 RMK A01 T00611001  RH  064%=      5-min Rain = 0
KUM1 110715Z 01013KT 06/M00 A2994 RMK A01 T00611001  RH  064%=      5-min Rain = 0
KUM1 110716Z 01015KT 06/M00 A2994 RMK A01 T00611001  RH  064%=      5-min Rain = 0
KUM1 110717Z 01015KT 06/M00 A2994 RMK A01 T00611001  RH  064%=      5-min Rain = 0
KUM1 110718Z 00015KT 06/M00 A2994 RMK A01 T00611001  RH  065%=      5-min Rain = 0
KUM1 110719Z 00014KT 06/M00 A2994 RMK A01 T00601001  RH  065%=      5-min Rain = 0
KUM1 110720Z 00015KT 06/M00 A2994 RMK A01 T00601001  RH  065%=      5-min Rain = 0
KUM1 110721Z 36014KT 06/M00 A2994 RMK A01 T00591001  RH  065%=      5-min Rain = 0
KUM1 110722Z 00014KT 06/M00 A2994 RMK A01 T00581001  RH  066%=      5-min Rain = 0
KUM1 110723Z 00014KT 06/M00 A2994 RMK A01 T00581001  RH  066%=      5-min Rain = 0
KUM1 110724Z 00015KT 06/M00 A2994 RMK A01 T00571001  RH  066%=      5-min Rain = 0
KUM1 110725Z 00017KT 06/M00 A2994 RMK A01 T00571001  RH  066%=      5-min Rain = 0
KUM1 110726Z 00015KT 06/M00 A2995 RMK A01 T00571001  RH  067%=      5-min Rain = 0
KUM1 110727Z 00015KT 06/M00 A2995 RMK A01 T00561001  RH  067%=      5-min Rain = 0
KUM1 110728Z 00015KT 06/M00 A2995 RMK A01 T00561001  RH  067%=      5-min Rain = 0
KUM1 110729Z 00015KT 06/M00 A2995 RMK A01 T00551001  RH  067%=      5-min Rain = 0
KUM1 110730Z 00016KT 06/00 A2995 RMK A01 T005500-0  RH  067%=      5-min Rain = 0
KUM1 110731Z 00016KT 06/00 A2995 RMK A01 T005500-0  RH  068%=      5-min Rain = 0
KUM1 110732Z 00016KT 06/00 A2995 RMK A01 T005500-0  RH  068%=      5-min Rain = 0
KUM1 110733Z 00015KT 05/00 A2995 RMK A01 T005400-0  RH  068%=      5-min Rain = 0
KUM1 110734Z 00017KT 05/00 A2995 RMK A01 T00540000  RH  068%=      5-min Rain = 0
KUM1 110735Z 00016KT 05/00 A2995 RMK A01 T00540001  RH  069%=      5-min Rain = 0
KUM1 110736Z 00016KT 05/00 A2995 RMK A01 T00530001  RH  069%=      5-min Rain = 0
KUM1 110737Z 00016KT 05/00 A2995 RMK A01 T00530001  RH  069%=      5-min Rain = 0
KUM1 110738Z 36015KT 05/00 A2995 RMK A01 T00530001  RH  069%=      5-min Rain = 0
KUM1 110739Z 36015KT 05/00 A2996 RMK A01 T00530001  RH  069%=      5-min Rain = 0
KUM1 110740Z 36013KT 05/00 A2996 RMK A01 T00520001  RH  070%=      5-min Rain = 0
KUM1 110741Z 36015KT 05/00 A2996 RMK A01 T00510001  RH  070%=      5-min Rain = 0
KUM1 110742Z 36016KT 05/00 A2996 RMK A01 T00520001  RH  070%=      5-min Rain = 0
KUM1 110743Z 00016KT 05/00 A2996 RMK A01 T00520002  RH  070%=      5-min Rain = 0
KUM1 110744Z 36015KT 05/00 A2996 RMK A01 T00520002  RH  070%=      5-min Rain = 0
KUM1 110745Z 00016KT 05/00 A2996 RMK A01 T00510002  RH  070%=      5-min Rain = 0
KUM1 110746Z 36016KT 05/00 A2996 RMK A01 T00510002  RH  071%=      5-min Rain = 0
KUM1 110747Z 36016KT 05/00 A2996 RMK A01 T00510002  RH  071%=      5-min Rain = 0
KUM1 110748Z 00016KT 05/00 A2996 RMK A01 T00510002  RH  071%=      5-min Rain = 0
KUM1 110749Z 00016KT 05/00 A2996 RMK A01 T00500002  RH  071%=      5-min Rain = 0
KUM1 110750Z 00016KT 05/00 A2996 RMK A01 T00510003  RH  071%=      5-min Rain = 0
KUM1 110751Z 00016KT 05/00 A2996 RMK A01 T00500003  RH  071%=      5-min Rain = 0
KUM1 110752Z 00014KT 05/00 A2996 RMK A01 T00500003  RH  072%=      5-min Rain = 0
KUM1 110753Z 00016KT 05/00 A2996 RMK A01 T00490003  RH  072%=      5-min Rain = 0
KUM1 110754Z 01015KT 05/00 A2996 RMK A01 T00490003  RH  072%=      5-min Rain = 0
KUM1 110755Z 00015KT 05/00 A2997 RMK A01 T00490003  RH  073%=      5-min Rain = 0
KUM1 110756Z 00016KT 05/00 A2997 RMK A01 T00480003  RH  073%=      5-min Rain = 0
KUM1 110757Z 00016KT 05/00 A2997 RMK A01 T00480004  RH  073%=      5-min Rain = 0
KUM1 110758Z 00015KT 05/00 A2997 RMK A01 T00480004  RH  073%=      5-min Rain = 0
KUM1 110759Z 00015KT 05/00 A2997 RMK A01 T00480004  RH  073%=      5-min Rain = 0
KUM1 110800Z 00014KT 05/00 A2997 RMK A01 T00480004  RH  073%=      5-min Rain = 0
KUM1 110801Z 01018KT 05/00 A2997 RMK A01 T00470004  RH  074%=      5-min Rain = 0
KUM1 110802Z 00015KT 05/01 A2997 RMK A01 T00480005  RH  074%=      5-min Rain = 0
KUM1 110803Z 00014KT 05/01 A2997 RMK A01 T00480005  RH  074%=      5-min Rain = 0
KUM1 110804Z 01015G20KT 05/01 A2998 RMK A01 T00470005  RH  074%=      5-min Rain = 0
KUM1 110805Z 01015KT 05/01 A2998 RMK A01 T00480005  RH  074%=      5-min Rain = 0
KUM1 110806Z 01015KT 05/01 A2998 RMK A01 T00470005  RH  074%=      5-min Rain = 0
KUM1 110807Z 00013KT 05/01 A2998 RMK A01 T00470006  RH  074%=      5-min Rain = 0
KUM1 110808Z 01013KT 05/01 A2998 RMK A01 T00470005  RH  074%=      5-min Rain = 0
KUM1 110809Z 01012KT 05/01 A2998 RMK A01 T00470005  RH  074%=      5-min Rain = 0
KUM1 110810Z 00014KT 05/01 A2999 RMK A01 T00460005  RH  075%=      5-min Rain = 0
KUM1 110811Z 00013KT 05/01 A2999 RMK A01 T00460005  RH  075%=      5-min Rain = 0
KUM1 110812Z 00012KT 05/01 A2999 RMK A01 T00460005  RH  075%=      5-min Rain = 0
KUM1 110813Z 00012KT 05/01 A2999 RMK A01 T00460005  RH  075%=      5-min Rain = 0
KUM1 110814Z 00013KT 05/01 A2999 RMK A01 T00450005  RH  075%=      5-min Rain = 0
KUM1 110815Z 01015KT 05/01 A2999 RMK A01 T00460006  RH  075%=      5-min Rain = 0
KUM1 110816Z 01013KT 05/01 A2999 RMK A01 T00460006  RH  076%=      5-min Rain = 0
KUM1 110817Z 01013KT 05/01 A2999 RMK A01 T00450006  RH  076%=      5-min Rain = 0
KUM1 110818Z 01013KT 05/01 A2999 RMK A01 T00450006  RH  076%=      5-min Rain = 0
KUM1 110819Z 00013KT 05/01 A2999 RMK A01 T00450006  RH  076%=      5-min Rain = 0
KUM1 110820Z 00013KT 04/01 A30 RMK A01 T00440005  RH  076%=      5-min Rain = 0
KUM1 110821Z 00013KT 04/01 A30 RMK A01 T00440005  RH  076%=      5-min Rain = 0
KUM1 110822Z 01013KT 04/01 A30 RMK A01 T00440006  RH  076%=      5-min Rain = 0
KUM1 110823Z 00012KT 04/01 A30 RMK A01 T00430005  RH  076%=      5-min Rain = 0
KUM1 110824Z 00013KT 04/01 A30 RMK A01 T00430005  RH  077%=      5-min Rain = 0
KUM1 110825Z 01012KT 04/01 A30 RMK A01 T00420005  RH  077%=      5-min Rain = 0
KUM1 110826Z 01015KT 04/01 A30 RMK A01 T00420005  RH  077%=      5-min Rain = 0
KUM1 110827Z 00015KT 04/01 A3001 RMK A01 T00420006  RH  077%=      5-min Rain = 0
KUM1 110828Z 01015KT 04/01 A3001 RMK A01 T00420006  RH  077%=      5-min Rain = 0
KUM1 110829Z 01015KT 04/01 A3001 RMK A01 T00420006  RH  077%=      5-min Rain = 0
KUM1 110830Z 01013KT 04/01 A3001 RMK A01 T00420006  RH  077%=      5-min Rain = 0
KUM1 110831Z 01013KT 04/01 A3001 RMK A01 T00420006  RH  077%=      5-min Rain = 0
KUM1 110832Z 01012KT 04/01 A3001 RMK A01 T00420006  RH  077%=      5-min Rain = 0
KUM1 110833Z 01016KT 04/01 A3001 RMK A01 T00410006  RH  078%=      5-min Rain = 0
KUM1 110834Z 01016KT 04/01 A3001 RMK A01 T00410006  RH  078%=      5-min Rain = 0
KUM1 110835Z 01015KT 04/01 A3001 RMK A01 T00410007  RH  078%=      5-min Rain = 0
KUM1 110836Z 01015KT 04/01 A3001 RMK A01 T00410006  RH  078%=      5-min Rain = 0
KUM1 110837Z 01013KT 04/01 A3002 RMK A01 T00420007  RH  078%=      5-min Rain = 0
KUM1 110838Z 01013KT 04/01 A3002 RMK A01 T00410007  RH  078%=      5-min Rain = 0
KUM1 110839Z 01013KT 04/01 A3002 RMK A01 T00410007  RH  078%=      5-min Rain = 0
KUM1 110840Z 01013KT 04/01 A3002 RMK A01 T00400007  RH  079%=      5-min Rain = 0
KUM1 110841Z 01014KT 04/01 A3002 RMK A01 T00400007  RH  079%=      5-min Rain = 0
KUM1 110842Z 01015KT 04/01 A3002 RMK A01 T00400008  RH  079%=      5-min Rain = 0
KUM1 110843Z 01013KT 04/01 A3002 RMK A01 T00400008  RH  079%=      5-min Rain = 0
KUM1 110844Z 01014KT 04/01 A3002 RMK A01 T00400007  RH  079%=      5-min Rain = 0
KUM1 110845Z 01016KT 04/01 A3002 RMK A01 T00390007  RH  080%=      5-min Rain = 0
KUM1 110846Z 01015KT 04/01 A3002 RMK A01 T00390008  RH  080%=      5-min Rain = 0
KUM1 110847Z 01016KT 04/01 A3002 RMK A01 T00390008  RH  080%=      5-min Rain = 0
KUM1 110848Z 01015KT 04/01 A3003 RMK A01 T00400008  RH  080%=      5-min Rain = 0
KUM1 110849Z 01015KT 04/01 A3003 RMK A01 T00400009  RH  080%=      5-min Rain = 0
KUM1 110850Z 01014KT 04/01 A3003 RMK A01 T00400009  RH  080%=      5-min Rain = 0
KUM1 110851Z 01016KT 04/01 A3003 RMK A01 T00400009  RH  080%=      5-min Rain = 0
KUM1 110852Z 01016KT 04/01 A3003 RMK A01 T00400010  RH  080%=      5-min Rain = 0
KUM1 110853Z 01015KT 04/01 A3003 RMK A01 T00410010  RH  081%=      5-min Rain = 0
KUM1 110854Z 01013KT 04/01 A3003 RMK A01 T00400010  RH  081%=      5-min Rain = 0
KUM1 110855Z 01016KT 04/01 A3003 RMK A01 T00400010  RH  081%=      5-min Rain = 0
KUM1 110856Z 01016KT 04/01 A3003 RMK A01 T00410011  RH  081%=      5-min Rain = 0
KUM1 110857Z 01019KT 04/01 A3003 RMK A01 T00410011  RH  081%=      5-min Rain = 0
KUM1 110858Z 01015KT 04/01 A3003 RMK A01 T00420012  RH  081%=      5-min Rain = 0
KUM1 110859Z 01017KT 04/01 A3003 RMK A01 T00420012  RH  081%=      5-min Rain = 0
KUM1 110900Z 01018KT 04/01 A3003 RMK A01 T00420013  RH  081%=      5-min Rain = 0
KUM1 110901Z 02014KT 04/01 A3003 RMK A01 T00420013  RH  081%=      5-min Rain = 0
KUM1 110902Z 01013KT 04/01 A3003 RMK A01 T00430013  RH  081%=      5-min Rain = 0
KUM1 110903Z 01016KT 04/01 A3003 RMK A01 T00430013  RH  081%=      5-min Rain = 0
KUM1 110904Z 01015KT 04/01 A3004 RMK A01 T00430014  RH  081%=      5-min Rain = 0
KUM1 110905Z 01014KT 04/01 A3004 RMK A01 T00430014  RH  082%=      5-min Rain = 0
KUM1 110906Z 01017KT 04/01 A3004 RMK A01 T00430014  RH  082%=      5-min Rain = 0
KUM1 110907Z 01019KT 04/02 A3004 RMK A01 T00430015  RH  082%=      5-min Rain = 0
KUM1 110908Z 01018KT 04/02 A3004 RMK A01 T00440015  RH  082%=      5-min Rain = 0
KUM1 110909Z 01019KT 04/02 A3004 RMK A01 T00440016  RH  082%=      5-min Rain = 0
KUM1 110910Z 01018KT 04/02 A3004 RMK A01 T00440015  RH  082%=      5-min Rain = 0
KUM1 110911Z 01019G24KT 04/02 A3004 RMK A01 T00440015  RH  082%=      5-min Rain = 0
KUM1 110912Z 02023KT 04/02 A3004 RMK A01 T00440016  RH  082%=      5-min Rain = 0
KUM1 110913Z 02023KT 04/02 A3004 RMK A01 T00440016  RH  082%=      5-min Rain = 0
KUM1 110914Z 01022KT 04/02 A3004 RMK A01 T00440016  RH  082%=      5-min Rain = 0
KUM1 110915Z 02020KT 04/02 A3004 RMK A01 T00440016  RH  082%=      5-min Rain = 0
KUM1 110916Z 01019KT 04/02 A3004 RMK A01 T00440016  RH  082%=      5-min Rain = 0
KUM1 110917Z 01020KT 04/02 A3004 RMK A01 T00440016  RH  082%=      5-min Rain = 0
KUM1 110918Z 02018KT 04/02 A3004 RMK A01 T00440016  RH  082%=      5-min Rain = 0
KUM1 110919Z 02019KT 04/02 A3004 RMK A01 T00440016  RH  082%=      5-min Rain = 0
KUM1 110920Z 02019KT 04/02 A3004 RMK A01 T00440016  RH  082%=      5-min Rain = 0
KUM1 110921Z 01017KT 04/02 A3004 RMK A01 T00440016  RH  082%=      5-min Rain = 0
KUM1 110922Z 01020G25KT 04/02 A3004 RMK A01 T00440017  RH  082%=      5-min Rain = 0
KUM1 110923Z 01023G28KT 04/02 A3004 RMK A01 T00440016  RH  082%=      5-min Rain = 0
KUM1 110924Z 01025KT 04/02 A3004 RMK A01 T00430016  RH  082%=      5-min Rain = 0
KUM1 110925Z 01021G26KT 04/02 A3005 RMK A01 T00430016  RH  082%=      5-min Rain = 0
KUM1 110926Z 01024KT 04/02 A3005 RMK A01 T00430015  RH  082%=      5-min Rain = 0
KUM1 110927Z 01025KT 04/02 A3005 RMK A01 T00420015  RH  082%=      5-min Rain = 0
KUM1 110928Z 01023KT 04/01 A3005 RMK A01 T00410014  RH  082%=      5-min Rain = 0
KUM1 110929Z 01021KT 04/01 A3005 RMK A01 T00410014  RH  083%=      5-min Rain = 0
KUM1 110930Z 01022KT 04/01 A3005 RMK A01 T00410014  RH  083%=      5-min Rain = 0
KUM1 110931Z 01021KT 04/01 A3006 RMK A01 T00410014  RH  083%=      5-min Rain = 0
KUM1 110932Z 01021KT 04/01 A3006 RMK A01 T00400014  RH  083%=      5-min Rain = 0
KUM1 110933Z 00024KT 04/01 A3006 RMK A01 T00400014  RH  083%=      5-min Rain = 0
KUM1 110934Z 01023KT 04/01 A3006 RMK A01 T00400013  RH  083%=      5-min Rain = 0
KUM1 110935Z 01024G31KT 04/01 A3006 RMK A01 T00390013  RH  083%=      5-min Rain = 0
KUM1 110936Z 01024G30KT 04/01 A3006 RMK A01 T00390013  RH  083%=      5-min Rain = 0
KUM1 110937Z 01027KT 04/01 A3007 RMK A01 T00380012  RH  083%=      5-min Rain = 0
KUM1 110938Z 01027KT 04/01 A3007 RMK A01 T00380012  RH  083%=      5-min Rain = 0
KUM1 110939Z 02027G33KT 04/01 A3007 RMK A01 T00370012  RH  084%=      5-min Rain = 0
KUM1 110940Z 01027KT 04/01 A3007 RMK A01 T00370012  RH  084%=      5-min Rain = 0
KUM1 110941Z 01025KT 04/01 A3007 RMK A01 T00360012  RH  084%=      5-min Rain = 0
KUM1 110942Z 01025KT 04/01 A3007 RMK A01 T00360012  RH  085%=      5-min Rain = 0
KUM1 110943Z 01025KT 04/01 A3007 RMK A01 T00350012  RH  085%=      5-min Rain = 0
KUM1 110944Z 01024KT 03/01 A3007 RMK A01 T00340010  RH  084%=      5-min Rain = 0
KUM1 110945Z 00021KT 03/01 A3007 RMK A01 T00330008  RH  084%=      5-min Rain = 0
KUM1 110946Z 00023KT 03/01 A3007 RMK A01 T00330008  RH  084%=      5-min Rain = 0
KUM1 110947Z 01018KT 03/01 A3008 RMK A01 T00320008  RH  084%=      5-min Rain = 0
KUM1 110948Z 01024G29KT 03/01 A3008 RMK A01 T00320008  RH  084%=      5-min Rain = 0
KUM1 110949Z 01028G34KT 03/01 A3008 RMK A01 T00310008  RH  085%=      5-min Rain = 0
KUM1 110950Z 01029G34KT 03/01 A3008 RMK A01 T00300007  RH  085%=      5-min Rain = 0
KUM1 110951Z 01030G35KT 03/01 A3008 RMK A01 T00290007  RH  085%=      5-min Rain = 0
KUM1 110952Z 01028G34KT 03/01 A3009 RMK A01 T00270006  RH  086%=      5-min Rain = 0
KUM1 110953Z 01029G34KT 03/01 A3009 RMK A01 T00260007  RH  087%=      5-min Rain = 0
KUM1 110954Z 01027KT 03/01 A3009 RMK A01 T00250007  RH  088%=      5-min Rain = 0
KUM1 110955Z 01027KT 02/01 A3009 RMK A01 T00240006  RH  088%=      5-min Rain = 0
KUM1 110956Z 01026KT 02/01 A3009 RMK A01 T00240006  RH  088%=      5-min Rain = 0
KUM1 110957Z 02024KT 02/01 A3009 RMK A01 T00240006  RH  088%=      5-min Rain = 0
KUM1 110958Z 02022G27KT 02/01 A3009 RMK A01 T00240006  RH  088%=      5-min Rain = 0
KUM1 110959Z 01022KT 02/01 A301 RMK A01 T00240006  RH  088%=      5-min Rain = 0
KUM1 111000Z 01023KT 02/01 A301 RMK A01 T00240006  RH  088%=      5-min Rain = 0
KUM1 111001Z 00028KT 02/01 A301 RMK A01 T00240005  RH  088%=      5-min Rain = 0
KUM1 111002Z 01025G30KT 02/00 A301 RMK A01 T00230004  RH  087%=      5-min Rain = 0
KUM1 111003Z 01027G32KT 02/00 A301 RMK A01 T00220003  RH  087%=      5-min Rain = 0
KUM1 111004Z 01028KT 02/00 A301 RMK A01 T00210002  RH  087%=      5-min Rain = 0
KUM1 111005Z 01027G32KT 02/00 A301 RMK A01 T00200001  RH  088%=      5-min Rain = 0
KUM1 111006Z 01026KT 02/00 A301 RMK A01 T00190001  RH  088%=      5-min Rain = 0
KUM1 111007Z 01026KT 02/00 A3011 RMK A01 T00190002  RH  089%=      5-min Rain = 0
KUM1 111008Z 01027G35KT 02/00 A3011 RMK A01 T00180001  RH  089%=      5-min Rain = 0
KUM1 111009Z 01028KT 02/00 A3011 RMK A01 T00170001  RH  089%=      5-min Rain = 0
KUM1 111010Z 02026G33KT 02/00 A3011 RMK A01 T00160000  RH  089%=      5-min Rain = 0
KUM1 111011Z 01024KT 02/00 A3011 RMK A01 T001600-0  RH  089%=      5-min Rain = 0
KUM1 111012Z 02026KT 02/00 A3012 RMK A01 T00160000  RH  089%=      5-min Rain = 0
KUM1 111013Z 02025KT 02/00 A3012 RMK A01 T001500-0  RH  089%=      5-min Rain = 0
KUM1 111014Z 01025G30KT 02/M00 A3012 RMK A01 T00151001  RH  089%=      5-min Rain = 0
KUM1 111015Z 02028KT 01/M00 A3012 RMK A01 T00141001  RH  090%=      5-min Rain = 0
KUM1 111016Z 02029KT 01/M00 A3012 RMK A01 T00141001  RH  090%=      5-min Rain = 0
KUM1 111017Z 02025G30KT 01/M00 A3012 RMK A01 T00141002  RH  090%=      5-min Rain = 0
KUM1 111018Z 02024KT 01/M00 A3012 RMK A01 T00141001  RH  090%=      5-min Rain = 0
KUM1 111019Z 01025G31KT 01/M00 A3012 RMK A01 T00141001  RH  090%=      5-min Rain = 0
KUM1 111020Z 01030KT 01/M00 A3012 RMK A01 T00141002  RH  090%=      5-min Rain = 0
KUM1 111021Z 01027KT 01/M00 A3012 RMK A01 T00131003  RH  090%=      5-min Rain = 0
KUM1 111022Z 01027KT 01/M00 A3012 RMK A01 T00121003  RH  090%=      5-min Rain = 0
KUM1 111023Z 01027G33KT 01/M00 A3012 RMK A01 T00111003  RH  090%=      5-min Rain = 0
KUM1 111024Z 01027KT 01/M00 A3012 RMK A01 T00111003  RH  090%=      5-min Rain = 0
KUM1 111025Z 01028G36KT 01/M00 A3012 RMK A01 T00111003  RH  090%=      5-min Rain = 0
KUM1 111026Z 02029G34KT 01/M00 A3013 RMK A01 T00111004  RH  090%=      5-min Rain = 0
KUM1 111027Z 01028KT 01/M00 A3013 RMK A01 T00101004  RH  090%=      5-min Rain = 0
KUM1 111028Z 01028KT 01/M00 A3013 RMK A01 T00101004  RH  090%=      5-min Rain = 0
KUM1 111029Z 01029G35KT 01/M00 A3013 RMK A01 T00101004  RH  090%=      5-min Rain = 0
KUM1 111030Z 01035KT 01/M01 A3013 RMK A01 T00091005  RH  090%=      5-min Rain = 0
KUM1 111031Z 01033KT 01/M01 A3013 RMK A01 T00081007  RH  090%=      5-min Rain = 0
KUM1 111032Z 01031KT 01/M01 A3013 RMK A01 T00071008  RH  090%=      5-min Rain = 0
KUM1 111033Z 01027KT 01/M01 A3013 RMK A01 T00061008  RH  090%=      5-min Rain = 0
KUM1 111034Z 01024KT 01/M01 A3013 RMK A01 T00061007  RH  091%=      5-min Rain = 0
KUM1 111035Z 01032KT 01/M01 A3013 RMK A01 T00061007  RH  091%=      5-min Rain = 0
KUM1 111036Z 01028KT 01/M01 A3014 RMK A01 T00051007  RH  091%=      5-min Rain = 0
KUM1 111037Z 01028KT 01/M01 A3014 RMK A01 T00051007  RH  092%=      5-min Rain = 0
KUM1 111038Z 01024KT 00/M01 A3014 RMK A01 T00041007  RH  092%=      5-min Rain = 0
KUM1 111039Z 01025KT 00/M01 A3014 RMK A01 T00041007  RH  092%=      5-min Rain = 0
KUM1 111040Z 01026G31KT 00/M01 A3014 RMK A01 T00041007  RH  093%=      5-min Rain = 0
KUM1 111041Z 01027G35KT 00/M01 A3014 RMK A01 T00041007  RH  093%=      5-min Rain = 0
KUM1 111042Z 01033KT 00/M01 A3014 RMK A01 T00031008  RH  092%=      5-min Rain = 0
KUM1 111043Z 01028KT 00/M01 A3014 RMK A01 T00021010  RH  092%=      5-min Rain = 0
KUM1 111044Z 00034G41KT 00/M01 A3014 RMK A01 T00011010  RH  092%=      5-min Rain = 0
KUM1 111045Z 01029KT 00/01 A3014 RMK A01 T00000-11  RH  092%=      5-min Rain = 0
KUM1 111046Z 01031G36KT 00/01 A3015 RMK A01 T00-00-11  RH  093%=      5-min Rain = 0
KUM1 111047Z 01027KT M00/M01 A3015 RMK A01 T10011011  RH  093%=      5-min Rain = 0
KUM1 111048Z 01030KT M00/M01 A3015 RMK A01 T10011011  RH  093%=      5-min Rain = 0
KUM1 111049Z 01032KT M00/M01 A3015 RMK A01 T10021012  RH  093%=      5-min Rain = 0
KUM1 111050Z 01027G32KT M00/M01 A3015 RMK A01 T10031014  RH  093%=      5-min Rain = 0
KUM1 111051Z 01031KT M00/M01 A3015 RMK A01 T10041014  RH  093%=      5-min Rain = 0
KUM1 111052Z 01032G37KT M01/M02 A3016 RMK A01 T10051015  RH  093%=      5-min Rain = 0
KUM1 111053Z 01033G39KT M01/M02 A3016 RMK A01 T10061017  RH  093%=      5-min Rain = 0
KUM1 111054Z 02030G36KT M01/M02 A3016 RMK A01 T10061017  RH  093%=      5-min Rain = 0
KUM1 111055Z 02029G34KT M01/M02 A3016 RMK A01 T10071018  RH  093%=      5-min Rain = 0
KUM1 111056Z 02029G34KT M01/M02 A3016 RMK A01 T10081019  RH  093%=      5-min Rain = 0
KUM1 111057Z 02030KT M01/M02 A3016 RMK A01 T10091019  RH  093%=      5-min Rain = 0
KUM1 111058Z 02029G36KT M01/M02 A3016 RMK A01 T10091019  RH  093%=      5-min Rain = 0
KUM1 111059Z 01030KT M01/M02 A3016 RMK A01 T10091019  RH  093%=      5-min Rain = 0
KUM1 111100Z 02027G32KT M01/M02 A3016 RMK A01 T10101020  RH  093%=      5-min Rain = 0
KUM1 111101Z 02024G29KT M01/M02 A3017 RMK A01 T10111021  RH  093%=      5-min Rain = 0
KUM1 111102Z 02023KT M01/M02 A3017 RMK A01 T10111020  RH  093%=      5-min Rain = 0
KUM1 111103Z 02020G26KT M01/M02 A3017 RMK A01 T10111020  RH  094%=      5-min Rain = 0
KUM1 111104Z 02024KT M01/M02 A3017 RMK A01 T10111020  RH  094%=      5-min Rain = 0
KUM1 111105Z 02024KT M01/M02 A3017 RMK A01 T10111019  RH  094%=      5-min Rain = 0
KUM1 111106Z 02024G29KT M01/M02 A3017 RMK A01 T10111020  RH  094%=      5-min Rain = 0
KUM1 111107Z 02022KT M01/M02 A3017 RMK A01 T10111020  RH  094%=      5-min Rain = 0
KUM1 111108Z 02022KT M01/M02 A3017 RMK A01 T10111020  RH  094%=      5-min Rain = 0
KUM1 111109Z 02021G26KT M01/M02 A3017 RMK A01 T10111019  RH  094%=      5-min Rain = 0
KUM1 111110Z 02023KT M01/M02 A3017 RMK A01 T10121020  RH  094%=      5-min Rain = 0
KUM1 111111Z 02021KT M01/M02 A3018 RMK A01 T10121020  RH  094%=      5-min Rain = 0
KUM1 111112Z 02020KT M01/M02 A3018 RMK A01 T10121020  RH  094%=      5-min Rain = 0
KUM1 111113Z 02019KT M01/M02 A3018 RMK A01 T10121020  RH  094%=      5-min Rain = 0
KUM1 111114Z 02020G25KT M01/M02 A3018 RMK A01 T10121020  RH  094%=      5-min Rain = 0
KUM1 111115Z 02022G27KT M01/M02 A3018 RMK A01 T10121020  RH  094%=      5-min Rain = 0
KUM1 111116Z 02021KT M01/M02 A3018 RMK A01 T10131021  RH  094%=      5-min Rain = 0
KUM1 111117Z 02021KT M01/M02 A3018 RMK A01 T10131021  RH  094%=      5-min Rain = 0
KUM1 111118Z 02019KT M01/M02 A3018 RMK A01 T10131021  RH  094%=      5-min Rain = 0
KUM1 111119Z 02020KT M01/M02 A3018 RMK A01 T10131021  RH  094%=      5-min Rain = 0
KUM1 111120Z 02020KT M01/M02 A3018 RMK A01 T10131021  RH  094%=      5-min Rain = 0
KUM1 111121Z 02019G24KT M01/M02 A3018 RMK A01 T10131021  RH  094%=      5-min Rain = 0
KUM1 111122Z 02018KT M01/M02 A3018 RMK A01 T10131021  RH  094%=      5-min Rain = 0
KUM1 111123Z 02018KT M01/M02 A3018 RMK A01 T10131020  RH  095%=      5-min Rain = 0
KUM1 111124Z 01022KT M01/M02 A3018 RMK A01 T10131020  RH  095%=      5-min Rain = 0
KUM1 111125Z 01022G27KT M01/M02 A3018 RMK A01 T10131022  RH  094%=      5-min Rain = 0
KUM1 111126Z 02024G29KT M02/M03 A3018 RMK A01 T10151025  RH  093%=      5-min Rain = 0
KUM1 111127Z 02023KT M02/M03 A3018 RMK A01 T10151026  RH  093%=      5-min Rain = 0
KUM1 111128Z 02024KT M02/M03 A3018 RMK A01 T10151027  RH  092%=      5-min Rain = 0
KUM1 111129Z 02021G26KT M02/M03 A3018 RMK A01 T10161028  RH  092%=      5-min Rain = 0
KUM1 111130Z 02019KT M02/M03 A3018 RMK A01 T10161027  RH  092%=      5-min Rain = 0
KUM1 111131Z 02020KT M02/M03 A3018 RMK A01 T10161027  RH  092%=      5-min Rain = 0
KUM1 111132Z 02021KT M02/M03 A3019 RMK A01 T10161027  RH  092%=      5-min Rain = 0
KUM1 111133Z 02022KT M02/M03 A3019 RMK A01 T10171028  RH  092%=      5-min Rain = 0
KUM1 111134Z 02020KT M02/M03 A3019 RMK A01 T10171028  RH  092%=      5-min Rain = 0
KUM1 111135Z 02019KT M02/M03 A3019 RMK A01 T10171028  RH  092%=      5-min Rain = 0
KUM1 111136Z 02018KT M02/M03 A3019 RMK A01 T10171028  RH  093%=      5-min Rain = 0
KUM1 111137Z 02016KT M02/M03 A3019 RMK A01 T10171027  RH  093%=      5-min Rain = 0
KUM1 111138Z 02015KT M02/M03 A3019 RMK A01 T10171027  RH  093%=      5-min Rain = 0
KUM1 111139Z 02018KT M02/M03 A3019 RMK A01 T10171027  RH  093%=      5-min Rain = 0
KUM1 111140Z 02017KT M02/M03 A3019 RMK A01 T10171027  RH  093%=      5-min Rain = 0
KUM1 111141Z 02018G23KT M02/M03 A3019 RMK A01 T10171026  RH  094%=      5-min Rain = 0
KUM1 111142Z 02020KT M02/M03 A3019 RMK A01 T10171026  RH  093%=      5-min Rain = 0
KUM1 111143Z 02021KT M02/M03 A3019 RMK A01 T10171027  RH  093%=      5-min Rain = 0
KUM1 111144Z 02020KT M02/M03 A3019 RMK A01 T10171027  RH  093%=      5-min Rain = 0
KUM1 111145Z 02020KT M02/M03 A3019 RMK A01 T10171027  RH  093%=      5-min Rain = 0
KUM1 111146Z 01019KT M02/M03 A302 RMK A01 T10171027  RH  093%=      5-min Rain = 0
KUM1 111147Z 02018KT M02/M03 A302 RMK A01 T10171027  RH  093%=      5-min Rain = 0
KUM1 111148Z 02018KT M02/M03 A302 RMK A01 T10171027  RH  093%=      5-min Rain = 0
KUM1 111149Z 02015KT M02/M03 A302 RMK A01 T10171027  RH  093%=      5-min Rain = 0
KUM1 111150Z 01015KT M02/M03 A302 RMK A01 T10171027  RH  093%=      5-min Rain = 0
KUM1 111151Z 01016KT M02/M03 A3021 RMK A01 T10171026  RH  093%=      5-min Rain = 0
KUM1 111152Z 02016KT M02/M03 A3021 RMK A01 T10171027  RH  093%=      5-min Rain = 0
KUM1 111153Z 02016KT M02/M03 A3021 RMK A01 T10171027  RH  093%=      5-min Rain = 0
KUM1 111154Z 02017KT M02/M03 A3021 RMK A01 T10171028  RH  093%=      5-min Rain = 0
KUM1 111155Z 01019KT M02/M03 A3021 RMK A01 T10181028  RH  092%=      5-min Rain = 0
KUM1 111156Z 01020KT M02/M03 A3021 RMK A01 T10181029  RH  092%=      5-min Rain = 0
KUM1 111157Z 02019KT M02/M03 A3022 RMK A01 T10191030  RH  092%=      5-min Rain = 0
KUM1 111158Z 02018KT M02/M03 A3022 RMK A01 T10191030  RH  092%=      5-min Rain = 0
KUM1 111159Z 02018KT M02/M03 A3022 RMK A01 T10191030  RH  092%=      5-min Rain = 0
KUM1 111200Z 02017KT M02/M03 A3022 RMK A01 T10191030  RH  092%=      5-min Rain = 0
KUM1 111201Z 01017KT M02/M03 A3022 RMK A01 T10191030  RH  092%=      5-min Rain = 0
KUM1 111202Z 02019KT M02/M03 A3022 RMK A01 T10191030  RH  092%=      5-min Rain = 0
KUM1 111203Z 02017KT M02/M03 A3022 RMK A01 T10201031  RH  092%=      5-min Rain = 0
KUM1 111204Z 02017KT M02/M03 A3022 RMK A01 T10191030  RH  092%=      5-min Rain = 0
KUM1 111205Z 02016KT M02/M03 A3022 RMK A01 T10191030  RH  093%=      5-min Rain = 0
KUM1 111206Z 01015KT M02/M03 A3022 RMK A01 T10191030  RH  093%=      5-min Rain = 0
KUM1 111207Z 02016KT M02/M03 A3022 RMK A01 T10201030  RH  093%=      5-min Rain = 0
KUM1 111208Z 02018KT M02/M03 A3022 RMK A01 T10191030  RH  093%=      5-min Rain = 0
KUM1 111209Z 02017KT M02/M03 A3022 RMK A01 T10201030  RH  093%=      5-min Rain = 0
KUM1 111210Z 01017KT M02/M03 A3022 RMK A01 T10201030  RH  093%=      5-min Rain = 0
KUM1 111211Z 01016KT M02/M03 A3022 RMK A01 T10201030  RH  093%=      5-min Rain = 0
KUM1 111212Z 01017G22KT M02/M03 A3022 RMK A01 T10201030  RH  093%=      5-min Rain = 0
KUM1 111213Z 01019KT M02/M03 A3022 RMK A01 T10201030  RH  093%=      5-min Rain = 0
KUM1 111214Z 01018KT M02/M03 A3022 RMK A01 T10211031  RH  093%=      5-min Rain = 0
KUM1 111215Z 01018KT M02/M03 A3022 RMK A01 T10211031  RH  093%=      5-min Rain = 0
KUM1 111216Z 01018KT M02/M03 A3022 RMK A01 T10211032  RH  093%=      5-min Rain = 0
KUM1 111217Z 01019KT M02/M03 A3023 RMK A01 T10221032  RH  093%=      5-min Rain = 0
KUM1 111218Z 01019KT M02/M03 A3023 RMK A01 T10221032  RH  093%=      5-min Rain = 0
KUM1 111219Z 01020KT M02/M03 A3023 RMK A01 T10231033  RH  093%=      5-min Rain = 0
KUM1 111220Z 01021KT M02/M03 A3023 RMK A01 T10231034  RH  093%=      5-min Rain = 0
KUM1 111221Z 02018KT M02/M03 A3023 RMK A01 T10241034  RH  093%=      5-min Rain = 0
KUM1 111222Z 01017G22KT M02/M03 A3023 RMK A01 T10241034  RH  093%=      5-min Rain = 0
KUM1 111223Z 01022KT M02/M03 A3023 RMK A01 T10241034  RH  093%=      5-min Rain = 0
KUM1 111224Z 01020KT M03/M04 A3023 RMK A01 T10251036  RH  092%=      5-min Rain = 0
KUM1 111225Z 01019KT M03/M04 A3023 RMK A01 T10251036  RH  092%=      5-min Rain = 0
KUM1 111226Z 01020KT M03/M04 A3024 RMK A01 T10251036  RH  092%=      5-min Rain = 0
KUM1 111227Z 01019KT M03/M04 A3024 RMK A01 T10251037  RH  092%=      5-min Rain = 0
KUM1 111228Z 01017G23KT M03/M04 A3024 RMK A01 T10251037  RH  092%=      5-min Rain = 0
KUM1 111229Z 01017KT M03/M04 A3024 RMK A01 T10261037  RH  092%=      5-min Rain = 0
KUM1 111230Z 02019KT M03/M04 A3024 RMK A01 T10261037  RH  092%=      5-min Rain = 0
KUM1 111231Z 02018KT M03/M04 A3024 RMK A01 T10261037  RH  092%=      5-min Rain = 0
KUM1 111232Z 02019KT M03/M04 A3025 RMK A01 T10261037  RH  092%=      5-min Rain = 0
KUM1 111233Z 02017KT M03/M04 A3025 RMK A01 T10261038  RH  092%=      5-min Rain = 0
KUM1 111234Z 03019KT M03/M04 A3025 RMK A01 T10271039  RH  091%=      5-min Rain = 0
KUM1 111235Z 02018KT M03/M04 A3025 RMK A01 T10271040  RH  091%=      5-min Rain = 0
KUM1 111236Z 02019KT M03/M04 A3025 RMK A01 T10281041  RH  091%=      5-min Rain = 0
KUM1 111237Z 02018KT M03/M04 A3025 RMK A01 T10281042  RH  090%=      5-min Rain = 0
KUM1 111238Z 02018KT M03/M04 A3025 RMK A01 T10291042  RH  090%=      5-min Rain = 0
KUM1 111239Z 01021KT M03/M04 A3025 RMK A01 T10291043  RH  090%=      5-min Rain = 0
KUM1 111240Z 02016KT M03/M04 A3025 RMK A01 T10291043  RH  090%=      5-min Rain = 0
KUM1 111241Z 02020KT M03/M04 A3025 RMK A01 T10291042  RH  091%=      5-min Rain = 0
KUM1 111242Z 03020KT M03/M04 A3025 RMK A01 T10301042  RH  091%=      5-min Rain = 0
KUM1 111243Z 03020KT M03/M04 A3026 RMK A01 T10301043  RH  091%=      5-min Rain = 0
KUM1 111244Z 02020KT M03/M04 A3026 RMK A01 T10311043  RH  091%=      5-min Rain = 0
KUM1 111245Z 02019KT M03/M04 A3026 RMK A01 T10311043  RH  091%=      5-min Rain = 0
KUM1 111246Z 02019KT M03/M04 A3026 RMK A01 T10311043  RH  091%=      5-min Rain = 0
KUM1 111247Z 03019KT M03/M04 A3026 RMK A01 T10311043  RH  091%=      5-min Rain = 0
KUM1 111248Z 03018KT M03/M04 A3026 RMK A01 T10321043  RH  092%=      5-min Rain = 0
KUM1 111249Z 02020KT M03/M04 A3026 RMK A01 T10311043  RH  092%=      5-min Rain = 0
KUM1 111250Z 02019KT M03/M04 A3026 RMK A01 T10311043  RH  092%=      5-min Rain = 0
KUM1 111251Z 02019KT M03/M04 A3026 RMK A01 T10321043  RH  092%=      5-min Rain = 0
KUM1 111252Z 02019KT M03/M04 A3027 RMK A01 T10311043  RH  092%=      5-min Rain = 0
KUM1 111253Z 02019KT M03/M04 A3027 RMK A01 T10311043  RH  092%=      5-min Rain = 0
KUM1 111254Z 02016KT M03/M04 A3027 RMK A01 T10311043  RH  092%=      5-min Rain = 0
KUM1 111255Z 02019KT M03/M04 A3027 RMK A01 T10321043  RH  092%=      5-min Rain = 0
KUM1 111256Z 02018G23KT M03/M04 A3027 RMK A01 T10321043  RH  092%=      5-min Rain = 0
KUM1 111257Z 02017KT M03/M04 A3027 RMK A01 T10321044  RH  091%=      5-min Rain = 0
KUM1 111258Z 02015KT M03/M04 A3027 RMK A01 T10321044  RH  091%=      5-min Rain = 0
KUM1 111259Z 02016KT M03/M04 A3027 RMK A01 T10321044  RH  092%=      5-min Rain = 0
KUM1 111300Z 02017KT M03/M04 A3027 RMK A01 T10321044  RH  091%=      5-min Rain = 0
KUM1 111301Z 02016KT M03/M04 A3028 RMK A01 T10321044  RH  091%=      5-min Rain = 0
KUM1 111302Z 02017KT M03/M04 A3028 RMK A01 T10321044  RH  091%=      5-min Rain = 0
KUM1 111303Z 02018KT M03/M04 A3028 RMK A01 T10321044  RH  091%=      5-min Rain = 0
KUM1 111304Z 02016KT M03/M05 A3028 RMK A01 T10321045  RH  091%=      5-min Rain = 0
KUM1 111305Z 01017KT M03/M05 A3028 RMK A01 T10321045  RH  091%=      5-min Rain = 0
KUM1 111306Z 02017KT M03/M05 A3028 RMK A01 T10331045  RH  091%=      5-min Rain = 0
KUM1 111307Z 01018KT M03/M05 A3028 RMK A01 T10331045  RH  091%=      5-min Rain = 0
KUM1 111308Z 02018KT M03/M05 A3028 RMK A01 T10341046  RH  091%=      5-min Rain = 0
KUM1 111309Z 02017KT M03/M05 A3028 RMK A01 T10341046  RH  092%=      5-min Rain = 0
KUM1 111310Z 02017KT M03/M05 A3029 RMK A01 T10341046  RH  092%=      5-min Rain = 0
KUM1 111311Z 02017KT M03/M05 A3029 RMK A01 T10341045  RH  092%=      5-min Rain = 0
KUM1 111312Z 02015KT M03/M05 A3029 RMK A01 T10341046  RH  092%=      5-min Rain = 0
KUM1 111313Z 02016KT M04/M05 A3029 RMK A01 T10351046  RH  092%=      5-min Rain = 0
KUM1 111314Z 02016KT M03/M05 A3029 RMK A01 T10341045  RH  092%=      5-min Rain = 0
KUM1 111315Z 02019KT M04/M05 A303 RMK A01 T10351046  RH  092%=      5-min Rain = 0
KUM1 111316Z 02016KT M04/M05 A303 RMK A01 T10351047  RH  092%=      5-min Rain = 0
KUM1 111317Z 02020KT M04/M05 A303 RMK A01 T10361047  RH  092%=      5-min Rain = 0
KUM1 111318Z 02017KT M04/M05 A303 RMK A01 T10361049  RH  091%=      5-min Rain = 0
KUM1 111319Z 02020KT M04/M05 A303 RMK A01 T10371049  RH  091%=      5-min Rain = 0
KUM1 111320Z 02019G24KT M04/M05 A303 RMK A01 T10371050  RH  091%=      5-min Rain = 0
KUM1 111321Z 02019KT M04/M05 A303 RMK A01 T10371051  RH  090%=      5-min Rain = 0
KUM1 111322Z 02020KT M04/M05 A303 RMK A01 T10371051  RH  090%=      5-min Rain = 0
KUM1 111323Z 02019KT M04/M05 A303 RMK A01 T10381051  RH  091%=      5-min Rain = 0
KUM1 111324Z 02020KT M04/M05 A303 RMK A01 T10381051  RH  090%=      5-min Rain = 0
KUM1 111325Z 02019KT M04/M05 A303 RMK A01 T10381052  RH  090%=      5-min Rain = 0
KUM1 111326Z 02017KT M04/M05 A303 RMK A01 T10381052  RH  090%=      5-min Rain = 0
KUM1 111327Z 02017KT M04/M05 A303 RMK A01 T10381051  RH  091%=      5-min Rain = 0
KUM1 111328Z 02018KT M04/M05 A303 RMK A01 T10381051  RH  091%=      5-min Rain = 0
KUM1 111329Z 02017KT M04/M05 A303 RMK A01 T10381051  RH  091%=      5-min Rain = 0
KUM1 111330Z 02017KT M04/M05 A303 RMK A01 T10381051  RH  091%=      5-min Rain = 0
KUM1 111331Z 02020G25KT M04/M05 A303 RMK A01 T10381050  RH  091%=      5-min Rain = 0
KUM1 111332Z 02020G25KT M04/M05 A303 RMK A01 T10391051  RH  091%=      5-min Rain = 0
KUM1 111333Z 01022KT M04/M05 A3031 RMK A01 T10391052  RH  091%=      5-min Rain = 0
KUM1 111334Z 01017KT M04/M05 A303 RMK A01 T10401053  RH  091%=      5-min Rain = 0
KUM1 111335Z 01021G26KT M04/M05 A303 RMK A01 T10401053  RH  091%=      5-min Rain = 0
KUM1 111336Z 01022G27KT M04/M05 A3031 RMK A01 T10411054  RH  090%=      5-min Rain = 0
KUM1 111337Z 01018KT M04/M05 A3031 RMK A01 T10411054  RH  090%=      5-min Rain = 0
KUM1 111338Z 02022G27KT M04/M05 A3031 RMK A01 T10411054  RH  090%=      5-min Rain = 0
KUM1 111339Z 02022KT M04/M06 A3031 RMK A01 T10411055  RH  090%=      5-min Rain = 0
KUM1 111340Z 02020KT M04/M06 A3031 RMK A01 T10411055  RH  090%=      5-min Rain = 0
KUM1 111341Z 02021KT M04/M06 A3031 RMK A01 T10411056  RH  090%=      5-min Rain = 0
KUM1 111342Z 02021KT M04/M06 A3032 RMK A01 T10411056  RH  089%=      5-min Rain = 0
KUM1 111343Z 02021KT M04/M06 A3032 RMK A01 T10421057  RH  089%=      5-min Rain = 0
KUM1 111344Z 02018G24KT M04/M06 A3032 RMK A01 T10421058  RH  089%=      5-min Rain = 0
KUM1 111345Z 02018KT M04/M06 A3032 RMK A01 T10421057  RH  089%=      5-min Rain = 0
KUM1 111346Z 02017KT M04/M06 A3032 RMK A01 T10421056  RH  090%=      5-min Rain = 0
KUM1 111347Z 02019G24KT M04/M06 A3032 RMK A01 T10421056  RH  090%=      5-min Rain = 0
KUM1 111348Z 02020G26KT M04/M06 A3032 RMK A01 T10421057  RH  090%=      5-min Rain = 0
KUM1 111349Z 02019KT M04/M06 A3032 RMK A01 T10431057  RH  090%=      5-min Rain = 0
KUM1 111350Z 02019KT M04/M06 A3032 RMK A01 T10431057  RH  090%=      5-min Rain = 0
KUM1 111351Z 02019KT M04/M06 A3032 RMK A01 T10431057  RH  090%=      5-min Rain = 0
KUM1 111352Z 02020KT M04/M06 A3032 RMK A01 T10431058  RH  089%=      5-min Rain = 0
KUM1 111353Z 02019KT M04/M06 A3033 RMK A01 T10431058  RH  089%=      5-min Rain = 0
KUM1 111354Z 02018KT M04/M06 A3033 RMK A01 T10441058  RH  090%=      5-min Rain = 0
KUM1 111355Z 02021KT M04/M06 A3033 RMK A01 T10441058  RH  090%=      5-min Rain = 0
KUM1 111356Z 01021KT M04/M06 A3033 RMK A01 T10441059  RH  090%=      5-min Rain = 0
KUM1 111357Z 01022KT M05/M06 A3033 RMK A01 T10451061  RH  089%=      5-min Rain = 0
KUM1 111358Z 01021KT M05/M06 A3033 RMK A01 T10451062  RH  088%=      5-min Rain = 0
KUM1 111359Z 02019KT M05/M06 A3033 RMK A01 T10451063  RH  088%=      5-min Rain = 0
KUM1 111400Z 02020G26KT M05/M06 A3034 RMK A01 T10451063  RH  088%=      5-min Rain = 0
KUM1 111401Z 02023KT M05/M06 A3034 RMK A01 T10461064  RH  087%=      5-min Rain = 0
KUM1 111402Z 02022KT M05/M07 A3034 RMK A01 T10461065  RH  087%=      5-min Rain = 0
KUM1 111403Z 02018KT M05/M07 A3034 RMK A01 T10461065  RH  087%=      5-min Rain = 0
KUM1 111404Z 02020KT M05/M07 A3034 RMK A01 T10471065  RH  087%=      5-min Rain = 0
KUM1 111405Z 02019KT M05/M07 A3034 RMK A01 T10471065  RH  087%=      5-min Rain = 0
KUM1 111406Z 02018KT M05/M06 A3034 RMK A01 T10471064  RH  088%=      5-min Rain = 0
KUM1 111407Z 02017KT M05/M06 A3034 RMK A01 T10471064  RH  088%=      5-min Rain = 0
KUM1 111408Z 02022KT M05/M06 A3034 RMK A01 T10471064  RH  088%=      5-min Rain = 0
KUM1 111409Z 02022KT M05/M06 A3034 RMK A01 T10471064  RH  088%=      5-min Rain = 0
KUM1 111410Z 02020KT M05/M07 A3034 RMK A01 T10481065  RH  088%=      5-min Rain = 0
KUM1 111411Z 01019KT M05/M06 A3034 RMK A01 T10481064  RH  088%=      5-min Rain = 0
KUM1 111412Z 01020KT M05/M06 A3034 RMK A01 T10471064  RH  088%=      5-min Rain = 0
KUM1 111413Z 02016KT M05/M06 A3035 RMK A01 T10471064  RH  088%=      5-min Rain = 0
KUM1 111414Z 02016G22KT M05/M06 A3035 RMK A01 T10471063  RH  089%=      5-min Rain = 0
KUM1 111415Z 02023KT M05/M06 A3035 RMK A01 T10471064  RH  088%=      5-min Rain = 0
KUM1 111416Z 02019KT M05/M07 A3035 RMK A01 T10491066  RH  088%=      5-min Rain = 0
KUM1 111417Z 01023KT M05/M07 A3035 RMK A01 T10501067  RH  087%=      5-min Rain = 0
KUM1 111418Z 02020KT M05/M07 A3035 RMK A01 T10501069  RH  086%=      5-min Rain = 0
KUM1 111419Z 02019KT M05/M07 A3035 RMK A01 T10501070  RH  086%=      5-min Rain = 0
KUM1 111420Z 01017KT M05/M07 A3036 RMK A01 T10491069  RH  086%=      5-min Rain = 0
KUM1 111421Z 02020KT M05/M07 A3036 RMK A01 T10501069  RH  086%=      5-min Rain = 0
KUM1 111422Z 02020KT M05/M07 A3036 RMK A01 T10501071  RH  086%=      5-min Rain = 0
KUM1 111423Z 02021KT M05/M07 A3036 RMK A01 T10511072  RH  086%=      5-min Rain = 0
KUM1 111424Z 02019KT M05/M07 A3036 RMK A01 T10511072  RH  086%=      5-min Rain = 0
KUM1 111425Z 02022KT M05/M07 A3036 RMK A01 T10511072  RH  086%=      5-min Rain = 0
KUM1 111426Z 02020KT M05/M07 A3036 RMK A01 T10521072  RH  085%=      5-min Rain = 0
KUM1 111427Z 02022KT M05/M07 A3036 RMK A01 T10521073  RH  085%=      5-min Rain = 0
KUM1 111428Z 02019KT M05/M07 A3036 RMK A01 T10521073  RH  085%=      5-min Rain = 0
KUM1 111429Z 01020KT M05/M07 A3036 RMK A01 T10521073  RH  085%=      5-min Rain = 0
KUM1 111430Z 01020KT M05/M07 A3036 RMK A01 T10521073  RH  085%=      5-min Rain = 0
KUM1 111431Z 02022KT M05/M07 A3037 RMK A01 T10521073  RH  086%=      5-min Rain = 0
KUM1 111432Z 02020KT M05/M07 A3037 RMK A01 T10531073  RH  086%=      5-min Rain = 0
KUM1 111433Z 02021KT M05/M07 A3036 RMK A01 T10531073  RH  086%=      5-min Rain = 0
KUM1 111434Z 02020KT M05/M07 A3037 RMK A01 T10541073  RH  087%=      5-min Rain = 0
KUM1 111435Z 02021KT M05/M07 A3037 RMK A01 T10541072  RH  087%=      5-min Rain = 0
KUM1 111436Z 02020KT M05/M07 A3037 RMK A01 T10541073  RH  087%=      5-min Rain = 0
KUM1 111437Z 02017KT M06/M07 A3037 RMK A01 T10551072  RH  088%=      5-min Rain = 0
KUM1 111438Z 02017KT M05/M07 A3037 RMK A01 T10541071  RH  088%=      5-min Rain = 0
KUM1 111439Z 02017KT M05/M07 A3037 RMK A01 T10541071  RH  088%=      5-min Rain = 0
KUM1 111440Z 02017KT M05/M07 A3037 RMK A01 T10541071  RH  088%=      5-min Rain = 0
KUM1 111441Z 02018KT M05/M07 A3037 RMK A01 T10541071  RH  088%=      5-min Rain = 0
KUM1 111442Z 02018KT M05/M07 A3037 RMK A01 T10541070  RH  088%=      5-min Rain = 0
KUM1 111443Z 02019KT M05/M07 A3037 RMK A01 T10541071  RH  088%=      5-min Rain = 0
KUM1 111444Z 01019G24KT M05/M07 A3037 RMK A01 T10541070  RH  089%=      5-min Rain = 0
KUM1 111445Z 01018KT M05/M07 A3037 RMK A01 T10541070  RH  088%=      5-min Rain = 0
KUM1 111446Z 02019KT M05/M07 A3037 RMK A01 T10541070  RH  089%=      5-min Rain = 0
KUM1 111447Z 02022KT M05/M07 A3037 RMK A01 T10541070  RH  088%=      5-min Rain = 0
KUM1 111448Z 02019KT M05/M07 A3037 RMK A01 T10541071  RH  088%=      5-min Rain = 0
KUM1 111449Z 01019KT M05/M07 A3037 RMK A01 T10531070  RH  088%=      5-min Rain = 0
KUM1 111450Z 02020KT M05/M07 A3037 RMK A01 T10531070  RH  088%=      5-min Rain = 0
KUM1 111451Z 02022KT M05/M07 A3037 RMK A01 T10531071  RH  088%=      5-min Rain = 0
KUM1 111452Z 02021KT M05/M07 A3037 RMK A01 T10531071  RH  087%=      5-min Rain = 0
KUM1 111453Z 01020G25KT M05/M07 A3037 RMK A01 T10531071  RH  087%=      5-min Rain = 0
KUM1 111454Z 01019KT M05/M07 A3037 RMK A01 T10531071  RH  087%=      5-min Rain = 0
KUM1 111455Z 01021KT M05/M07 A3037 RMK A01 T10531071  RH  087%=      5-min Rain = 0
KUM1 111456Z 02021KT M05/M07 A3037 RMK A01 T10531072  RH  087%=      5-min Rain = 0
KUM1 111457Z 02019KT M05/M07 A3037 RMK A01 T10531072  RH  086%=      5-min Rain = 0
KUM1 111458Z 02017KT M05/M07 A3037 RMK A01 T10531071  RH  087%=      5-min Rain = 0
KUM1 111459Z 02017KT M05/M07 A3038 RMK A01 T10521070  RH  087%=      5-min Rain = 0
KUM1 111500Z 01020KT M05/M07 A3038 RMK A01 T10521070  RH  087%=      5-min Rain = 0
KUM1 111501Z 01021KT M05/M07 A3038 RMK A01 T10521071  RH  086%=      5-min Rain = 0
KUM1 111502Z 02022KT M05/M07 A3038 RMK A01 T10521072  RH  086%=      5-min Rain = 0
KUM1 111503Z 02023G28KT M05/M07 A3038 RMK A01 T10521073  RH  086%=      5-min Rain = 0
KUM1 111504Z 01023KT M05/M07 A3038 RMK A01 T10531074  RH  085%=      5-min Rain = 0
KUM1 111505Z 02022KT M05/M08 A3038 RMK A01 T10531075  RH  085%=      5-min Rain = 0
KUM1 111506Z 02023KT M05/M08 A3038 RMK A01 T10541075  RH  085%=      5-min Rain = 0
KUM1 111507Z 02022G27KT M06/M08 A3038 RMK A01 T10551076  RH  085%=      5-min Rain = 0
KUM1 111508Z 02021G26KT M06/M08 A3039 RMK A01 T10551077  RH  085%=      5-min Rain = 0
KUM1 111509Z 02022KT M06/M08 A3038 RMK A01 T10561077  RH  085%=      5-min Rain = 0
KUM1 111510Z 02021KT M06/M08 A3039 RMK A01 T10561078  RH  085%=      5-min Rain = 0
KUM1 111511Z 02023KT M06/M08 A3039 RMK A01 T10571078  RH  085%=      5-min Rain = 0
KUM1 111512Z 02020KT M06/M08 A3039 RMK A01 T10581079  RH  085%=      5-min Rain = 0
KUM1 111513Z 02019KT M06/M08 A3039 RMK A01 T10581079  RH  086%=      5-min Rain = 0
KUM1 111514Z 02021KT M06/M08 A3039 RMK A01 T10581078  RH  086%=      5-min Rain = 0
KUM1 111515Z 02022KT M06/M08 A3039 RMK A01 T10581078  RH  086%=      5-min Rain = 0
KUM1 111516Z 02021KT M06/M08 A3039 RMK A01 T10591079  RH  086%=      5-min Rain = 0
KUM1 111517Z 02019KT M06/M08 A3039 RMK A01 T10591078  RH  087%=      5-min Rain = 0
KUM1 111518Z 02020KT M06/M08 A3039 RMK A01 T10591078  RH  087%=      5-min Rain = 0
KUM1 111519Z 02020KT M06/M08 A3039 RMK A01 T10591077  RH  087%=      5-min Rain = 0
KUM1 111520Z 02016KT M06/M08 A3039 RMK A01 T10601077  RH  087%=      5-min Rain = 0
KUM1 111521Z 01018KT M06/M08 A3039 RMK A01 T10591076  RH  088%=      5-min Rain = 0
KUM1 111522Z 01020KT M06/M08 A3039 RMK A01 T10591076  RH  088%=      5-min Rain = 0
KUM1 111523Z 02021KT M06/M08 A3039 RMK A01 T10591076  RH  088%=      5-min Rain = 0
KUM1 111524Z 02020G25KT M06/M08 A304 RMK A01 T10591077  RH  088%=      5-min Rain = 0
KUM1 111525Z 02020KT M06/M08 A304 RMK A01 T10601077  RH  088%=      5-min Rain = 0
KUM1 111526Z 01016KT M06/M08 A304 RMK A01 T10601076  RH  088%=      5-min Rain = 0
KUM1 111527Z 01017KT M06/M08 A304 RMK A01 T10591075  RH  088%=      5-min Rain = 0
KUM1 111528Z 01017KT M06/M07 A304 RMK A01 T10581074  RH  089%=      5-min Rain = 0
KUM1 111529Z 01020KT M06/M07 A304 RMK A01 T10581074  RH  089%=      5-min Rain = 0
KUM1 111530Z 01019KT M06/M08 A304 RMK A01 T10581075  RH  088%=      5-min Rain = 0
KUM1 111531Z 01019KT M06/M08 A304 RMK A01 T10591075  RH  088%=      5-min Rain = 0
KUM1 111532Z 01022KT M06/M08 A304 RMK A01 T10591076  RH  088%=      5-min Rain = 0
KUM1 111533Z 01021KT M06/M08 A304 RMK A01 T10601077  RH  088%=      5-min Rain = 0
KUM1 111534Z 01021G26KT M06/M08 A304 RMK A01 T10621079  RH  088%=      5-min Rain = 0
KUM1 111535Z 00020KT M06/M08 A304 RMK A01 T10621080  RH  088%=      5-min Rain = 0
KUM1 111536Z 01019KT M06/M08 A3041 RMK A01 T10621079  RH  088%=      5-min Rain = 0
KUM1 111537Z 01020KT M06/M08 A3041 RMK A01 T10631079  RH  088%=      5-min Rain = 0
KUM1 111538Z 01019KT M06/M08 A3041 RMK A01 T10631079  RH  088%=      5-min Rain = 0
KUM1 111539Z 01019G24KT M06/M08 A3041 RMK A01 T10631079  RH  088%=      5-min Rain = 0
KUM1 111540Z 01020KT M06/M08 A3041 RMK A01 T10631079  RH  088%=      5-min Rain = 0
KUM1 111541Z 01022KT M06/M08 A3041 RMK A01 T10631080  RH  088%=      5-min Rain = 0
KUM1 111542Z 01023KT M06/M08 A3042 RMK A01 T10641081  RH  088%=      5-min Rain = 0
KUM1 111543Z 02024KT M06/M08 A3042 RMK A01 T10641082  RH  087%=      5-min Rain = 0
KUM1 111544Z 02024G29KT M06/M08 A3042 RMK A01 T10641082  RH  087%=      5-min Rain = 0
KUM1 111545Z 01022G27KT M06/M08 A3042 RMK A01 T10641084  RH  086%=      5-min Rain = 0
KUM1 111546Z 01020KT M06/M08 A3042 RMK A01 T10641084  RH  086%=      5-min Rain = 0
KUM1 111547Z 02021KT M06/M08 A3042 RMK A01 T10631083  RH  086%=      5-min Rain = 0
KUM1 111548Z 02023KT M06/M08 A3042 RMK A01 T10631083  RH  086%=      5-min Rain = 0
KUM1 111549Z 01023KT M06/M08 A3042 RMK A01 T10631084  RH  085%=      5-min Rain = 0
KUM1 111550Z 01024KT M06/M09 A3042 RMK A01 T10641086  RH  085%=      5-min Rain = 0
KUM1 111551Z 01022KT M06/M09 A3042 RMK A01 T10641086  RH  084%=      5-min Rain = 0
KUM1 111552Z 01022KT M06/M09 A3042 RMK A01 T10641086  RH  084%=      5-min Rain = 0
KUM1 111553Z 01022G27KT M06/M09 A3042 RMK A01 T10631086  RH  084%=      5-min Rain = 0
KUM1 111554Z 01020KT M06/M09 A3042 RMK A01 T10631086  RH  084%=      5-min Rain = 0
KUM1 111555Z 02022KT M06/M09 A3042 RMK A01 T10631086  RH  084%=      5-min Rain = 0
KUM1 111556Z 02024KT M06/M09 A3042 RMK A01 T10641087  RH  084%=      5-min Rain = 0
KUM1 111557Z 02022KT M07/M09 A3042 RMK A01 T10651087  RH  084%=      5-min Rain = 0
KUM1 111558Z 02022G27KT M07/M09 A3043 RMK A01 T10651087  RH  084%=      5-min Rain = 0
KUM1 111559Z 01021KT M07/M09 A3042 RMK A01 T10651087  RH  084%=      5-min Rain = 0
KUM1 111600Z 02021G26KT M07/M09 A3043 RMK A01 T10651086  RH  085%=      5-min Rain = 0
KUM1 111601Z 02021G26KT M07/M09 A3043 RMK A01 T10651086  RH  085%=      5-min Rain = 0
KUM1 111602Z 02022KT M07/M09 A3043 RMK A01 T10651086  RH  085%=      5-min Rain = 0
KUM1 111603Z 02020KT M07/M09 A3043 RMK A01 T10651086  RH  085%=      5-min Rain = 0
KUM1 111604Z 01020KT M06/M09 A3043 RMK A01 T10641085  RH  085%=      5-min Rain = 0
KUM1 111605Z 02019G24KT M06/M09 A3043 RMK A01 T10641085  RH  085%=      5-min Rain = 0
KUM1 111606Z 02020KT M06/M08 A3042 RMK A01 T10631084  RH  086%=      5-min Rain = 0
KUM1 111607Z 02020G25KT M06/M08 A3042 RMK A01 T10641084  RH  086%=      5-min Rain = 0
KUM1 111608Z 02022KT M06/M08 A3042 RMK A01 T10631084  RH  085%=      5-min Rain = 0
KUM1 111609Z 01020KT M06/M08 A3043 RMK A01 T10631084  RH  085%=      5-min Rain = 0
KUM1 111610Z 02023KT M06/M08 A3043 RMK A01 T10641084  RH  085%=      5-min Rain = 0
KUM1 111611Z 01022G27KT M06/M09 A3042 RMK A01 T10641085  RH  085%=      5-min Rain = 0
KUM1 111612Z 02022KT M06/M08 A3043 RMK A01 T10641084  RH  085%=      5-min Rain = 0
KUM1 111613Z 01023KT M06/M08 A3043 RMK A01 T10631084  RH  085%=      5-min Rain = 0
KUM1 111614Z 01021KT M06/M08 A3043 RMK A01 T10631084  RH  085%=      5-min Rain = 0
KUM1 111615Z 01020KT M06/M08 A3043 RMK A01 T10631083  RH  086%=      5-min Rain = 0
KUM1 111616Z 02023KT M06/M08 A3043 RMK A01 T10631083  RH  086%=      5-min Rain = 0
KUM1 111617Z 01020KT M06/M08 A3043 RMK A01 T10631083  RH  086%=      5-min Rain = 0
KUM1 111618Z 01021KT M06/M08 A3043 RMK A01 T10631083  RH  086%=      5-min Rain = 0
KUM1 111619Z 01022KT M06/M08 A3043 RMK A01 T10631082  RH  086%=      5-min Rain = 0
KUM1 111620Z 01021KT M06/M08 A3043 RMK A01 T10631083  RH  086%=      5-min Rain = 0
KUM1 111621Z 02021KT M06/M08 A3043 RMK A01 T10631083  RH  086%=      5-min Rain = 0
KUM1 111622Z 01019KT M06/M08 A3043 RMK A01 T10631082  RH  086%=      5-min Rain = 0
KUM1 111623Z 01018KT M06/M08 A3043 RMK A01 T10621081  RH  087%=      5-min Rain = 0
KUM1 111624Z 01016KT M06/M08 A3043 RMK A01 T10621080  RH  087%=      5-min Rain = 0
KUM1 111625Z 01016KT M06/M08 A3043 RMK A01 T10611079  RH  087%=      5-min Rain = 0
KUM1 111626Z 01022KT M06/M08 A3043 RMK A01 T10611079  RH  087%=      5-min Rain = 0
KUM1 111627Z 01019KT M06/M08 A3043 RMK A01 T10621081  RH  086%=      5-min Rain = 0
KUM1 111628Z 01020KT M06/M08 A3044 RMK A01 T10621083  RH  086%=      5-min Rain = 0
KUM1 111629Z 00018KT M06/M08 A3043 RMK A01 T10631084  RH  085%=      5-min Rain = 0
KUM1 111630Z 00019KT M06/M09 A3044 RMK A01 T10641085  RH  085%=      5-min Rain = 0
KUM1 111631Z 00022KT M07/M09 A3044 RMK A01 T10651086  RH  085%=      5-min Rain = 0
KUM1 111632Z 00021KT M07/M09 A3044 RMK A01 T10651087  RH  085%=      5-min Rain = 0
KUM1 111633Z 01022KT M07/M09 A3044 RMK A01 T10661088  RH  085%=      5-min Rain = 0
KUM1 111634Z 00021KT M07/M09 A3044 RMK A01 T10671088  RH  085%=      5-min Rain = 0
KUM1 111635Z 00022KT M07/M09 A3044 RMK A01 T10661088  RH  085%=      5-min Rain = 0
KUM1 111636Z 01020KT M07/M09 A3044 RMK A01 T10671088  RH  085%=      5-min Rain = 0
KUM1 111637Z 01021KT M07/M09 A3044 RMK A01 T10671089  RH  084%=      5-min Rain = 0
KUM1 111638Z 01023KT M07/M09 A3044 RMK A01 T10671090  RH  084%=      5-min Rain = 0
KUM1 111639Z 01025KT M07/M09 A3044 RMK A01 T10671091  RH  083%=      5-min Rain = 0
KUM1 111640Z 01023G28KT M07/M09 A3044 RMK A01 T10671093  RH  082%=      5-min Rain = 0
KUM1 111641Z 01022KT M07/M09 A3044 RMK A01 T10671093  RH  082%=      5-min Rain = 0
KUM1 111642Z 02025KT M07/M09 A3044 RMK A01 T10671093  RH  081%=      5-min Rain = 0
KUM1 111643Z 01023KT M07/M10 A3045 RMK A01 T10671095  RH  081%=      5-min Rain = 0
KUM1 111644Z 02025KT M07/M10 A3045 RMK A01 T10671096  RH  080%=      5-min Rain = 0
KUM1 111645Z 01020KT M07/M10 A3045 RMK A01 T10671096  RH  080%=      5-min Rain = 0
KUM1 111646Z 01022KT M07/M09 A3044 RMK A01 T10661094  RH  080%=      5-min Rain = 0
KUM1 111647Z 01020KT M07/M10 A3045 RMK A01 T10661095  RH  080%=      5-min Rain = 0
KUM1 111648Z 01020KT M07/M10 A3045 RMK A01 T10651095  RH  080%=      5-min Rain = 0
KUM1 111649Z 01022KT M07/M10 A3045 RMK A01 T10651095  RH  079%=      5-min Rain = 0
KUM1 111650Z 01020KT M06/M10 A3045 RMK A01 T10641095  RH  079%=      5-min Rain = 0
KUM1 111651Z 02022KT M06/M09 A3045 RMK A01 T10631094  RH  078%=      5-min Rain = 0
KUM1 111652Z 02023KT M06/M10 A3045 RMK A01 T10631095  RH  078%=      5-min Rain = 0
KUM1 111653Z 02021KT M06/M10 A3045 RMK A01 T10641096  RH  078%=      5-min Rain = 0
KUM1 111654Z 02023KT M06/M10 A3045 RMK A01 T10641096  RH  078%=      5-min Rain = 0
KUM1 111655Z 02021KT M06/M10 A3045 RMK A01 T10641095  RH  078%=      5-min Rain = 0
KUM1 111656Z 02021KT M06/M10 A3045 RMK A01 T10641096  RH  079%=      5-min Rain = 0
KUM1 111657Z 01019KT M06/M10 A3045 RMK A01 T10641095  RH  079%=      5-min Rain = 0
KUM1 111658Z 02020KT M06/M09 A3045 RMK A01 T10641094  RH  079%=      5-min Rain = 0
KUM1 111659Z 02021KT M06/M09 A3045 RMK A01 T10631094  RH  079%=      5-min Rain = 0
KUM1 111700Z 01016KT M06/M09 A3045 RMK A01 T10641094  RH  079%=      5-min Rain = 0
KUM1 111701Z 01017KT M06/M09 A3045 RMK A01 T10631092  RH  080%=      5-min Rain = 0
KUM1 111702Z 01017KT M06/M09 A3045 RMK A01 T10621092  RH  080%=      5-min Rain = 0
KUM1 111703Z 00020KT M06/M09 A3045 RMK A01 T10621091  RH  080%=      5-min Rain = 0
KUM1 111704Z 01020KT M06/M09 A3046 RMK A01 T10631093  RH  079%=      5-min Rain = 0
KUM1 111705Z 01019KT M06/M09 A3046 RMK A01 T10641093  RH  080%=      5-min Rain = 0
KUM1 111706Z 01018G23KT M06/M09 A3046 RMK A01 T10641093  RH  080%=      5-min Rain = 0
KUM1 111707Z 01020G25KT M06/M09 A3046 RMK A01 T10641093  RH  080%=      5-min Rain = 0
KUM1 111708Z 02018KT M06/M09 A3046 RMK A01 T10641094  RH  079%=      5-min Rain = 0
KUM1 111709Z 01021KT M06/M10 A3046 RMK A01 T10631095  RH  078%=      5-min Rain = 0
KUM1 111710Z 02020KT M06/M10 A3046 RMK A01 T10631096  RH  077%=      5-min Rain = 0
KUM1 111711Z 02023KT M06/M10 A3046 RMK A01 T10621096  RH  077%=      5-min Rain = 0
KUM1 111712Z 01025KT M06/M10 A3046 RMK A01 T10611098  RH  076%=      5-min Rain = 0
KUM1 111713Z 01024KT M06/M10 A3046 RMK A01 T10621099  RH  075%=      5-min Rain = 0
KUM1 111714Z 02022KT M06/M10 A3047 RMK A01 T10611099  RH  075%=      5-min Rain = 0
KUM1 111715Z 02017KT M06/M10 A3047 RMK A01 T10611098  RH  075%=      5-min Rain = 0
KUM1 111716Z 02022KT M06/M10 A3047 RMK A01 T10591096  RH  075%=      5-min Rain = 0
KUM1 111717Z 02019KT M06/M10 A3047 RMK A01 T10591097  RH  074%=      5-min Rain = 0
KUM1 111718Z 02022KT M06/M10 A3047 RMK A01 T10591097  RH  074%=      5-min Rain = 0
KUM1 111719Z 02020KT M06/M10 A3046 RMK A01 T10591098  RH  074%=      5-min Rain = 0
KUM1 111720Z 01019G24KT M06/M10 A3047 RMK A01 T10591098  RH  074%=      5-min Rain = 0
KUM1 111721Z 01023KT M06/M10 A3046 RMK A01 T10591098  RH  074%=      5-min Rain = 0
KUM1 111722Z 01019KT M06/M10 A3046 RMK A01 T10601098  RH  074%=      5-min Rain = 0
KUM1 111723Z 01018KT M06/M10 A3047 RMK A01 T10601097  RH  075%=      5-min Rain = 0
KUM1 111724Z 01019KT M06/M10 A3047 RMK A01 T10591096  RH  075%=      5-min Rain = 0
KUM1 111725Z 01022G27KT M06/M10 A3046 RMK A01 T10581095  RH  075%=      5-min Rain = 0
KUM1 111726Z 01021KT M06/M10 A3047 RMK A01 T10581096  RH  075%=      5-min Rain = 0
KUM1 111727Z 01021KT M06/M10 A3047 RMK A01 T10581096  RH  075%=      5-min Rain = 0
KUM1 111728Z 01022KT M06/M10 A3047 RMK A01 T10581096  RH  074%=      5-min Rain = 0
KUM1 111729Z 01022KT M06/M10 A3047 RMK A01 T10581097  RH  074%=      5-min Rain = 0
KUM1 111730Z 01020KT M06/M10 A3047 RMK A01 T10581097  RH  074%=      5-min Rain = 0
KUM1 111731Z 01022G28KT M06/M10 A3047 RMK A01 T10571096  RH  074%=      5-min Rain = 0
KUM1 111732Z 01022KT M06/M10 A3047 RMK A01 T10571096  RH  074%=      5-min Rain = 0
KUM1 111733Z 01021KT M06/M10 A3047 RMK A01 T10571097  RH  073%=      5-min Rain = 0
KUM1 111734Z 01021KT M06/M10 A3047 RMK A01 T10561095  RH  074%=      5-min Rain = 0
KUM1 111735Z 01018KT M06/M09 A3047 RMK A01 T10551094  RH  074%=      5-min Rain = 0
KUM1 111736Z 01018KT M05/M09 A3047 RMK A01 T10541093  RH  074%=      5-min Rain = 0
KUM1 111737Z 00021KT M05/M09 A3047 RMK A01 T10531092  RH  074%=      5-min Rain = 0
KUM1 111738Z 01019G25KT M05/M09 A3047 RMK A01 T10541094  RH  073%=      5-min Rain = 0
KUM1 111739Z 01019KT M05/M09 A3047 RMK A01 T10541093  RH  074%=      5-min Rain = 0
KUM1 111740Z 01020KT M05/M09 A3047 RMK A01 T10541093  RH  074%=      5-min Rain = 0
KUM1 111741Z 01019KT M06/M09 A3047 RMK A01 T10551094  RH  074%=      5-min Rain = 0
KUM1 111742Z 01019KT M06/M09 A3047 RMK A01 T10551093  RH  074%=      5-min Rain = 0
KUM1 111743Z 01017KT M05/M09 A3047 RMK A01 T10541092  RH  075%=      5-min Rain = 0
KUM1 111744Z 01019G24KT M05/M09 A3047 RMK A01 T10521090  RH  075%=      5-min Rain = 0
KUM1 111745Z 00019KT M05/M09 A3047 RMK A01 T10521092  RH  074%=      5-min Rain = 0
KUM1 111746Z 01021KT M05/M09 A3047 RMK A01 T10521092  RH  074%=      5-min Rain = 0
KUM1 111747Z 01020KT M05/M09 A3047 RMK A01 T10521093  RH  073%=      5-min Rain = 0
KUM1 111748Z 01022KT M05/M09 A3047 RMK A01 T10531093  RH  073%=      5-min Rain = 0
KUM1 111749Z 00020KT M05/M09 A3047 RMK A01 T10521093  RH  073%=      5-min Rain = 0
KUM1 111750Z 00022G27KT M05/M09 A3047 RMK A01 T10521093  RH  073%=      5-min Rain = 0
KUM1 111751Z 01022KT M05/M09 A3047 RMK A01 T10521094  RH  073%=      5-min Rain = 0
KUM1 111752Z 01023KT M05/M09 A3047 RMK A01 T10521093  RH  073%=      5-min Rain = 0
KUM1 111753Z 01023KT M05/M09 A3047 RMK A01 T10521094  RH  073%=      5-min Rain = 0
KUM1 111754Z 01022KT M05/M10 A3047 RMK A01 T10541095  RH  073%=      5-min Rain = 0
KUM1 111755Z 01021KT M05/M09 A3047 RMK A01 T10541094  RH  073%=      5-min Rain = 0
KUM1 111756Z 01019KT M05/M09 A3047 RMK A01 T10521092  RH  074%=      5-min Rain = 0
KUM1 111757Z 02019KT M05/M09 A3047 RMK A01 T10491089  RH  074%=      5-min Rain = 0
KUM1 111758Z 01020KT M05/M09 A3047 RMK A01 T10491090  RH  073%=      5-min Rain = 0
KUM1 111759Z 01020KT M05/M09 A3047 RMK A01 T10521094  RH  072%=      5-min Rain = 0
KUM1 111800Z 01020KT M05/M09 A3047 RMK A01 T10541094  RH  073%=      5-min Rain = 0
KUM1 111801Z 01018KT M06/M09 A3047 RMK A01 T10551093  RH  074%=      5-min Rain = 0
KUM1 111802Z 00018KT M05/M09 A3047 RMK A01 T10541091  RH  075%=      5-min Rain = 0
KUM1 111803Z 00019G24KT M05/M09 A3047 RMK A01 T10541092  RH  075%=      5-min Rain = 0
KUM1 111804Z 00020KT M06/M09 A3047 RMK A01 T10551092  RH  075%=      5-min Rain = 0
KUM1 111805Z 01022KT M06/M09 A3048 RMK A01 T10561093  RH  075%=      5-min Rain = 0
KUM1 111806Z 01017KT M06/M10 A3048 RMK A01 T10571095  RH  075%=      5-min Rain = 0
KUM1 111807Z 01020KT M06/M09 A3048 RMK A01 T10571094  RH  075%=      5-min Rain = 0
KUM1 111808Z 01018KT M06/M09 A3048 RMK A01 T10581094  RH  075%=      5-min Rain = 0
KUM1 111809Z 01017KT M06/M09 A3048 RMK A01 T10571093  RH  076%=      5-min Rain = 0
KUM1 111810Z 01019KT M06/M09 A3047 RMK A01 T10561092  RH  076%=      5-min Rain = 0
KUM1 111811Z 01021KT M06/M09 A3047 RMK A01 T10561093  RH  075%=      5-min Rain = 0
KUM1 111812Z 01020KT M06/M10 A3047 RMK A01 T10561095  RH  074%=      5-min Rain = 0
KUM1 111813Z 01018G23KT M06/M10 A3047 RMK A01 T10571096  RH  074%=      5-min Rain = 0
KUM1 111814Z 01019KT M06/M10 A3047 RMK A01 T10561095  RH  074%=      5-min Rain = 0
KUM1 111815Z 01019KT M06/M09 A3047 RMK A01 T10551093  RH  074%=      5-min Rain = 0
KUM1 111816Z 02018G24KT M05/M09 A3047 RMK A01 T10521092  RH  074%=      5-min Rain = 0
KUM1 111817Z 02022KT M05/M09 A3048 RMK A01 T10511094  RH  072%=      5-min Rain = 0
KUM1 111818Z 01019KT M05/M10 A3048 RMK A01 T10521096  RH  071%=      5-min Rain = 0
KUM1 111819Z 01020G25KT M05/M10 A3047 RMK A01 T10521096  RH  072%=      5-min Rain = 0
KUM1 111820Z 01017KT M05/M10 A3048 RMK A01 T10521095  RH  072%=      5-min Rain = 0
KUM1 111821Z 01020G25KT M05/M09 A3048 RMK A01 T10511094  RH  072%=      5-min Rain = 0
KUM1 111822Z 01022KT M05/M10 A3048 RMK A01 T10531098  RH  071%=      5-min Rain = 0
KUM1 111823Z 01023KT M05/M10 A3048 RMK A01 T10531099  RH  070%=      5-min Rain = 0
KUM1 111824Z 01023KT M05/M10 A3047 RMK A01 T10531099  RH  070%=      5-min Rain = 0
KUM1 111825Z 01022KT M05/M10 A3047 RMK A01 T10531100  RH  070%=      5-min Rain = 0
KUM1 111826Z 01021G26KT M05/M10 A3047 RMK A01 T10521098  RH  070%=      5-min Rain = 0
KUM1 111827Z 01020KT M05/M10 A3047 RMK A01 T10501096  RH  070%=      5-min Rain = 0
KUM1 111828Z 01021KT M05/M10 A3047 RMK A01 T10501096  RH  070%=      5-min Rain = 0
KUM1 111829Z 01019KT M05/M10 A3047 RMK A01 T10511098  RH  070%=      5-min Rain = 0
KUM1 111830Z 02017KT M05/M10 A3047 RMK A01 T10511098  RH  070%=      5-min Rain = 0
KUM1 111831Z 02019KT M05/M10 A3047 RMK A01 T10501095  RH  070%=      5-min Rain = 0
KUM1 111832Z 02020KT M05/M10 A3047 RMK A01 T10481095  RH  070%=      5-min Rain = 0
KUM1 111833Z 02022KT M05/M10 A3047 RMK A01 T10491097  RH  069%=      5-min Rain = 0
KUM1 111834Z 02020KT M05/M10 A3047 RMK A01 T10491098  RH  069%=      5-min Rain = 0
KUM1 111835Z 02021KT M05/M10 A3047 RMK A01 T10481097  RH  069%=      5-min Rain = 0
KUM1 111836Z 01022KT M05/M10 A3047 RMK A01 T10481098  RH  068%=      5-min Rain = 0
KUM1 111837Z 02019KT M05/M10 A3047 RMK A01 T10491099  RH  068%=      5-min Rain = 0
KUM1 111838Z 01022KT M05/M10 A3047 RMK A01 T10491097  RH  069%=      5-min Rain = 0
KUM1 111839Z 02022G27KT M05/M10 A3047 RMK A01 T10481098  RH  068%=      5-min Rain = 0
KUM1 111840Z 02019KT M05/M10 A3047 RMK A01 T10481098  RH  068%=      5-min Rain = 0
KUM1 111841Z 02022KT M05/M10 A3047 RMK A01 T10461097  RH  068%=      5-min Rain = 0
KUM1 111842Z 02022KT M05/M10 A3047 RMK A01 T10461099  RH  067%=      5-min Rain = 0
KUM1 111843Z 02019KT M05/M10 A3047 RMK A01 T10451097  RH  067%=      5-min Rain = 0
KUM1 111844Z 01024G29KT M04/M09 A3047 RMK A01 T10421094  RH  067%=      5-min Rain = 0
KUM1 111845Z 01025KT M04/M10 A3047 RMK A01 T10431098  RH  066%=      5-min Rain = 0
KUM1 111846Z 01024KT M05/M10 A3047 RMK A01 T10451099  RH  065%=      5-min Rain = 0
KUM1 111847Z 02025KT M05/M10 A3047 RMK A01 T10451100  RH  065%=      5-min Rain = 0
KUM1 111848Z 01026KT M05/M10 A3047 RMK A01 T10451100  RH  066%=      5-min Rain = 0
KUM1 111849Z 02024KT M04/M10 A3047 RMK A01 T10441099  RH  065%=      5-min Rain = 0
KUM1 111850Z 02024G29KT M04/M10 A3047 RMK A01 T10431098  RH  065%=      5-min Rain = 0
KUM1 111851Z 01024KT M04/M10 A3047 RMK A01 T10421098  RH  065%=      5-min Rain = 0
KUM1 111852Z 01022KT M04/M10 A3047 RMK A01 T10421099  RH  065%=      5-min Rain = 0
KUM1 111853Z 01023KT M04/M10 A3047 RMK A01 T10421099  RH  065%=      5-min Rain = 0
KUM1 111854Z 01022G28KT M04/M10 A3047 RMK A01 T10421099  RH  064%=      5-min Rain = 0
KUM1 111855Z 01022KT M04/M10 A3047 RMK A01 T10401097  RH  065%=      5-min Rain = 0
KUM1 111856Z 02019G25KT M04/M10 A3047 RMK A01 T10391096  RH  064%=      5-min Rain = 0
KUM1 111857Z 01023G30KT M04/M10 A3047 RMK A01 T10371095  RH  064%=      5-min Rain = 0
KUM1 111858Z 01023KT M04/M10 A3047 RMK A01 T10381098  RH  063%=      5-min Rain = 0
KUM1 111859Z 02025G30KT M04/M10 A3047 RMK A01 T10401100  RH  063%=      5-min Rain = 0
KUM1 111900Z 01024G29KT M04/M10 A3047 RMK A01 T10401100  RH  063%=      5-min Rain = 0
KUM1 111901Z 02024KT M04/M10 A3047 RMK A01 T10391097  RH  064%=      5-min Rain = 0
KUM1 111902Z 02024KT M04/M10 A3047 RMK A01 T10381097  RH  064%=      5-min Rain = 0
KUM1 111903Z 01026KT M04/M10 A3046 RMK A01 T10381098  RH  063%=      5-min Rain = 0
KUM1 111904Z 01026KT M04/M10 A3046 RMK A01 T10391099  RH  063%=      5-min Rain = 0
KUM1 111905Z 02025KT M04/M10 A3046 RMK A01 T10391099  RH  063%=      5-min Rain = 0
KUM1 111906Z 01024KT M04/M10 A3046 RMK A01 T10381098  RH  063%=      5-min Rain = 0
KUM1 111907Z 02021G26KT M04/M10 A3046 RMK A01 T10361096  RH  063%=      5-min Rain = 0
KUM1 111908Z 01023G28KT M03/M09 A3046 RMK A01 T10321092  RH  063%=      5-min Rain = 0
KUM1 111909Z 01025KT M03/M10 A3046 RMK A01 T10311095  RH  061%=      5-min Rain = 0
KUM1 111910Z 02026KT M03/M10 A3047 RMK A01 T10331098  RH  061%=      5-min Rain = 0
KUM1 111911Z 01025G31KT M03/M10 A3047 RMK A01 T10341100  RH  060%=      5-min Rain = 0
KUM1 111912Z 01030KT M04/M10 A3047 RMK A01 T10351101  RH  060%=      5-min Rain = 0
KUM1 111913Z 01025KT M04/M10 A3047 RMK A01 T10371104  RH  060%=      5-min Rain = 0
KUM1 111914Z 02026G32KT M04/M10 A3047 RMK A01 T10371103  RH  060%=      5-min Rain = 0
KUM1 111915Z 02025G30KT M04/M10 A3047 RMK A01 T10361102  RH  060%=      5-min Rain = 0
KUM1 111916Z 02024G29KT M04/M10 A3047 RMK A01 T10361101  RH  061%=      5-min Rain = 0
KUM1 111917Z 02024KT M04/M10 A3047 RMK A01 T10351100  RH  061%=      5-min Rain = 0
KUM1 111918Z 01022G27KT M03/M10 A3047 RMK A01 T10341099  RH  061%=      5-min Rain = 0
KUM1 111919Z 01025KT M03/M10 A3047 RMK A01 T10331098  RH  061%=      5-min Rain = 0
KUM1 111920Z 01027KT M03/M10 A3047 RMK A01 T10321100  RH  060%=      5-min Rain = 0
KUM1 111921Z 01025KT M03/M10 A3046 RMK A01 T10331101  RH  059%=      5-min Rain = 0
KUM1 111922Z 01028KT M03/M10 A3046 RMK A01 T10331101  RH  059%=      5-min Rain = 0
KUM1 111923Z 02022KT M03/M10 A3046 RMK A01 T10341102  RH  060%=      5-min Rain = 0
KUM1 111924Z 02026G31KT M03/M10 A3046 RMK A01 T10331100  RH  060%=      5-min Rain = 0
KUM1 111925Z 02023KT M03/M10 A3046 RMK A01 T10321100  RH  060%=      5-min Rain = 0
KUM1 111926Z 01023G28KT M03/M10 A3046 RMK A01 T10321099  RH  060%=      5-min Rain = 0
KUM1 111927Z 01026KT M03/M10 A3046 RMK A01 T10311099  RH  059%=      5-min Rain = 0
KUM1 111928Z 01025KT M03/M10 A3046 RMK A01 T10301100  RH  059%=      5-min Rain = 0
KUM1 111929Z 02027KT M03/M10 A3046 RMK A01 T10301099  RH  059%=      5-min Rain = 0
KUM1 111930Z 02026KT M03/M10 A3046 RMK A01 T10301100  RH  059%=      5-min Rain = 0
KUM1 111931Z 02028KT M03/M10 A3046 RMK A01 T10311101  RH  059%=      5-min Rain = 0
KUM1 111932Z 02026KT M03/M10 A3046 RMK A01 T10311100  RH  059%=      5-min Rain = 0
KUM1 111933Z 03028KT M03/M10 A3046 RMK A01 T10261095  RH  059%=      5-min Rain = 0
KUM1 111934Z 03026G31KT M03/M10 A3046 RMK A01 T10271099  RH  058%=      5-min Rain = 0
KUM1 111935Z 02027KT M03/M10 A3046 RMK A01 T10271097  RH  058%=      5-min Rain = 0
KUM1 111936Z 01027KT M03/M10 A3046 RMK A01 T10261098  RH  058%=      5-min Rain = 0
KUM1 111937Z 01026KT M03/M10 A3046 RMK A01 T10271099  RH  058%=      5-min Rain = 0
KUM1 111938Z 02025KT M03/M10 A3046 RMK A01 T10271099  RH  058%=      5-min Rain = 0
KUM1 111939Z 01025KT M03/M10 A3046 RMK A01 T10261097  RH  058%=      5-min Rain = 0
KUM1 111940Z 00027KT M03/M10 A3046 RMK A01 T10261098  RH  058%=      5-min Rain = 0
KUM1 111941Z 02026KT M03/M10 A3046 RMK A01 T10261097  RH  058%=      5-min Rain = 0
KUM1 111942Z 02025G30KT M03/M10 A3046 RMK A01 T10251097  RH  058%=      5-min Rain = 0
KUM1 111943Z 02028KT M03/M10 A3046 RMK A01 T10261098  RH  058%=      5-min Rain = 0
KUM1 111944Z 01028KT M03/M10 A3046 RMK A01 T10281100  RH  057%=      5-min Rain = 0
KUM1 111945Z 01022G28KT M03/M10 A3046 RMK A01 T10281099  RH  058%=      5-min Rain = 0
KUM1 111946Z 02025KT M03/M10 A3046 RMK A01 T10251096  RH  058%=      5-min Rain = 0
KUM1 111947Z 02024KT M02/M10 A3046 RMK A01 T10241096  RH  058%=      5-min Rain = 0
KUM1 111948Z 01026KT M02/M10 A3046 RMK A01 T10241096  RH  058%=      5-min Rain = 0
KUM1 111949Z 01022KT M02/M10 A3046 RMK A01 T10241096  RH  058%=      5-min Rain = 0
KUM1 111950Z 01023G28KT M02/M09 A3046 RMK A01 T10211092  RH  058%=      5-min Rain = 0
KUM1 111951Z 01022G30KT M02/M09 A3046 RMK A01 T10171090  RH  058%=      5-min Rain = 0
KUM1 111952Z 01027G33KT M02/M09 A3046 RMK A01 T10161091  RH  056%=      5-min Rain = 0
KUM1 111953Z 02024G29KT M02/M10 A3047 RMK A01 T10191096  RH  056%=      5-min Rain = 0
KUM1 111954Z 02025KT M02/M09 A3046 RMK A01 T10191094  RH  056%=      5-min Rain = 0
KUM1 111955Z 01024KT M02/M10 A3046 RMK A01 T10201095  RH  056%=      5-min Rain = 0
KUM1 111956Z 01025G30KT M02/M10 A3046 RMK A01 T10201095  RH  057%=      5-min Rain = 0
KUM1 111957Z 01027G32KT M02/M10 A3046 RMK A01 T10201095  RH  056%=      5-min Rain = 0
KUM1 111958Z 01025KT M02/M10 A3046 RMK A01 T10201096  RH  056%=      5-min Rain = 0
KUM1 111959Z 02028KT M02/M10 A3047 RMK A01 T10201096  RH  056%=      5-min Rain = 0
KUM1 112000Z 01029KT M02/M10 A3047 RMK A01 T10211097  RH  056%=      5-min Rain = 0
KUM1 112001Z 01027G32KT M02/M10 A3046 RMK A01 T10211097  RH  056%=      5-min Rain = 0
KUM1 112002Z 02026KT M02/M10 A3046 RMK A01 T10221099  RH  056%=      5-min Rain = 0
KUM1 112003Z 02029KT M02/M10 A3047 RMK A01 T10221098  RH  056%=      5-min Rain = 0
KUM1 112004Z 01027KT M02/M10 A3046 RMK A01 T10221098  RH  056%=      5-min Rain = 0
KUM1 112005Z 02028G33KT M02/M10 A3046 RMK A01 T10211097  RH  056%=      5-min Rain = 0
KUM1 112006Z 02028G35KT M02/M10 A3046 RMK A01 T10201097  RH  056%=      5-min Rain = 0
KUM1 112007Z 01025G31KT M02/M10 A3046 RMK A01 T10191097  RH  055%=      5-min Rain = 0
KUM1 112008Z 02024KT M02/M10 A3046 RMK A01 T10191097  RH  055%=      5-min Rain = 0
KUM1 112009Z 02026KT M02/M10 A3046 RMK A01 T10181095  RH  055%=      5-min Rain = 0
KUM1 112010Z 02025G31KT M02/M10 A3047 RMK A01 T10191098  RH  055%=      5-min Rain = 0
KUM1 112011Z 02024KT M02/M10 A3046 RMK A01 T10201098  RH  055%=      5-min Rain = 0
KUM1 112012Z 02024G31KT M02/M10 A3046 RMK A01 T10191096  RH  056%=      5-min Rain = 0
KUM1 112013Z 02026G32KT M02/M10 A3046 RMK A01 T10191097  RH  055%=      5-min Rain = 0
KUM1 112014Z 02026G31KT M02/M10 A3046 RMK A01 T10221100  RH  055%=      5-min Rain = 0
KUM1 112015Z 02028KT M02/M10 A3046 RMK A01 T10221099  RH  056%=      5-min Rain = 0
KUM1 112016Z 02029G35KT M02/M10 A3046 RMK A01 T10211099  RH  055%=      5-min Rain = 0
KUM1 112017Z 02026KT M02/M10 A3046 RMK A01 T10211099  RH  055%=      5-min Rain = 0
KUM1 112018Z 01024G29KT M02/M10 A3046 RMK A01 T10191097  RH  055%=      5-min Rain = 0
KUM1 112019Z 02027KT M02/M09 A3046 RMK A01 T10151094  RH  055%=      5-min Rain = 0
KUM1 112020Z 02024KT M02/M10 A3046 RMK A01 T10151097  RH  054%=      5-min Rain = 0
KUM1 112021Z 01024G31KT M02/M10 A3046 RMK A01 T10171098  RH  054%=      5-min Rain = 0
KUM1 112022Z 00026KT M02/M10 A3046 RMK A01 T10161098  RH  054%=      5-min Rain = 0
KUM1 112023Z 01022KT M02/M10 A3046 RMK A01 T10191102  RH  053%=      5-min Rain = 0
KUM1 112024Z 02024KT M02/M10 A3046 RMK A01 T10201100  RH  054%=      5-min Rain = 0
KUM1 112025Z 02022KT M02/M10 A3047 RMK A01 T10161096  RH  055%=      5-min Rain = 0
KUM1 112026Z 02022G29KT M02/M10 A3046 RMK A01 T10151096  RH  054%=      5-min Rain = 0
KUM1 112027Z 02027KT M01/M09 A3046 RMK A01 T10121094  RH  054%=      5-min Rain = 0
KUM1 112028Z 02025KT M01/M10 A3046 RMK A01 T10141099  RH  052%=      5-min Rain = 0
KUM1 112029Z 01024KT M02/M10 A3046 RMK A01 T10151099  RH  053%=      5-min Rain = 0
KUM1 112030Z 01023G30KT M02/M10 A3046 RMK A01 T10161099  RH  053%=      5-min Rain = 0
KUM1 112031Z 01028KT M02/M10 A3046 RMK A01 T10151098  RH  053%=      5-min Rain = 0
KUM1 112032Z 00027KT M02/M10 A3046 RMK A01 T10151099  RH  053%=      5-min Rain = 0
KUM1 112033Z 00024G29KT M02/M10 A3046 RMK A01 T10161100  RH  053%=      5-min Rain = 0
KUM1 112034Z 01028KT M02/M10 A3046 RMK A01 T10151098  RH  053%=      5-min Rain = 0
KUM1 112035Z 01027G33KT M02/M10 A3046 RMK A01 T10151099  RH  053%=      5-min Rain = 0
KUM1 112036Z 01026G31KT M02/M10 A3046 RMK A01 T10161100  RH  053%=      5-min Rain = 0
KUM1 112037Z 01025KT M02/M10 A3046 RMK A01 T10151099  RH  053%=      5-min Rain = 0
KUM1 112038Z 01027KT M02/M10 A3046 RMK A01 T10151099  RH  053%=      5-min Rain = 0
KUM1 112039Z 02023KT M01/M10 A3046 RMK A01 T10141099  RH  052%=      5-min Rain = 0
KUM1 112040Z 02023KT M01/M10 A3046 RMK A01 T10121098  RH  052%=      5-min Rain = 0
KUM1 112041Z 02022KT M01/M10 A3046 RMK A01 T10111097  RH  052%=      5-min Rain = 0
KUM1 112042Z 01024KT M01/M10 A3046 RMK A01 T10091096  RH  052%=      5-min Rain = 0
KUM1 112043Z 01024KT M01/M10 A3046 RMK A01 T10091098  RH  051%=      5-min Rain = 0
KUM1 112044Z 02026KT M01/M10 A3046 RMK A01 T10121100  RH  051%=      5-min Rain = 0
KUM1 112045Z 02029KT M01/M10 A3046 RMK A01 T10121100  RH  051%=      5-min Rain = 0
KUM1 112046Z 02027KT M01/M10 A3046 RMK A01 T10141101  RH  051%=      5-min Rain = 0
KUM1 112047Z 02027KT M02/M10 A3046 RMK A01 T10151102  RH  052%=      5-min Rain = 0
KUM1 112048Z 01025KT M02/M10 A3046 RMK A01 T10151100  RH  052%=      5-min Rain = 0
KUM1 112049Z 01023KT M02/M10 A3046 RMK A01 T10151101  RH  052%=      5-min Rain = 0
KUM1 112050Z 02025KT M01/M10 A3046 RMK A01 T10141099  RH  052%=      5-min Rain = 0
KUM1 112051Z 02026KT M01/M10 A3046 RMK A01 T10131099  RH  052%=      5-min Rain = 0
KUM1 112052Z 02026KT M01/M10 A3046 RMK A01 T10131100  RH  052%=      5-min Rain = 0
KUM1 112053Z 02024KT M01/M10 A3046 RMK A01 T10131100  RH  051%=      5-min Rain = 0
KUM1 112054Z 01024G30KT M01/M10 A3046 RMK A01 T10121100  RH  051%=      5-min Rain = 0
KUM1 112055Z 01025KT M01/M10 A3046 RMK A01 T10111100  RH  051%=      5-min Rain = 0
KUM1 112056Z 01026KT M01/M10 A3046 RMK A01 T10101099  RH  051%=      5-min Rain = 0
KUM1 112057Z 02025G30KT M01/M10 A3046 RMK A01 T10121102  RH  050%=      5-min Rain = 0
KUM1 112058Z 01025G30KT M01/M10 A3046 RMK A01 T10131102  RH  051%=      5-min Rain = 0
KUM1 112059Z 01022KT M01/M10 A3046 RMK A01 T10131101  RH  051%=      5-min Rain = 0
KUM1 112100Z 02022G27KT M01/M10 A3046 RMK A01 T10121101  RH  051%=      5-min Rain = 0
KUM1 112101Z 02023KT M01/M10 A3046 RMK A01 T10111100  RH  051%=      5-min Rain = 0
KUM1 112102Z 01030KT M01/M10 A3046 RMK A01 T10111101  RH  050%=      5-min Rain = 0
KUM1 112103Z 01028G33KT M01/M11 A3046 RMK A01 T10131105  RH  050%=      5-min Rain = 0
KUM1 112104Z 01027KT M01/M11 A3046 RMK A01 T10141105  RH  050%=      5-min Rain = 0
KUM1 112105Z 02027KT M01/M10 A3046 RMK A01 T10131104  RH  050%=      5-min Rain = 0
KUM1 112106Z 01027KT M01/M11 A3046 RMK A01 T10131105  RH  050%=      5-min Rain = 0
KUM1 112107Z 02025KT M01/M10 A3046 RMK A01 T10131104  RH  050%=      5-min Rain = 0
KUM1 112108Z 02027KT M01/M10 A3046 RMK A01 T10121104  RH  050%=      5-min Rain = 0
KUM1 112109Z 02025KT M01/M10 A3046 RMK A01 T10111103  RH  050%=      5-min Rain = 0
KUM1 112110Z 02025KT M01/M10 A3046 RMK A01 T10101102  RH  049%=      5-min Rain = 0
KUM1 112111Z 02030KT M01/M10 A3046 RMK A01 T10101103  RH  049%=      5-min Rain = 0
KUM1 112112Z 02027KT M01/M10 A3046 RMK A01 T10111104  RH  049%=      5-min Rain = 0
KUM1 112113Z 02026KT M01/M11 A3046 RMK A01 T10111105  RH  049%=      5-min Rain = 0
KUM1 112114Z 02027KT M01/M11 A3046 RMK A01 T10131107  RH  049%=      5-min Rain = 0
KUM1 112115Z 02028KT M01/M11 A3046 RMK A01 T10121105  RH  049%=      5-min Rain = 0
KUM1 112116Z 02026G31KT M01/M11 A3046 RMK A01 T10131107  RH  049%=      5-min Rain = 0
KUM1 112117Z 02025G30KT M01/M11 A3046 RMK A01 T10141106  RH  049%=      5-min Rain = 0
KUM1 112118Z 01027KT M01/M11 A3046 RMK A01 T10141106  RH  049%=      5-min Rain = 0
KUM1 112119Z 01027KT M02/M11 A3046 RMK A01 T10161108  RH  050%=      5-min Rain = 0
KUM1 112120Z 01028KT M02/M11 A3046 RMK A01 T10171108  RH  050%=      5-min Rain = 0
KUM1 112121Z 01026KT M02/M11 A3046 RMK A01 T10161107  RH  050%=      5-min Rain = 0
KUM1 112122Z 01026KT M01/M11 A3046 RMK A01 T10141106  RH  050%=      5-min Rain = 0
KUM1 112123Z 01022KT M01/M11 A3046 RMK A01 T10131105  RH  050%=      5-min Rain = 0
KUM1 112124Z 02020G26KT M01/M10 A3046 RMK A01 T10121104  RH  050%=      5-min Rain = 0
KUM1 112125Z 02027KT M01/M10 A3047 RMK A01 T10101103  RH  049%=      5-min Rain = 0
KUM1 112126Z 02026KT M01/M11 A3047 RMK A01 T10111106  RH  049%=      5-min Rain = 0
KUM1 112127Z 02024KT M01/M11 A3047 RMK A01 T10121107  RH  049%=      5-min Rain = 0
KUM1 112128Z 02026KT M01/M11 A3047 RMK A01 T10121107  RH  049%=      5-min Rain = 0
KUM1 112129Z 02025G30KT M01/M11 A3047 RMK A01 T10131108  RH  049%=      5-min Rain = 0
KUM1 112130Z 02023KT M01/M11 A3046 RMK A01 T10141109  RH  049%=      5-min Rain = 0
KUM1 112131Z 01025KT M01/M11 A3046 RMK A01 T10141108  RH  049%=      5-min Rain = 0
KUM1 112132Z 03021G27KT M01/M11 A3047 RMK A01 T10141108  RH  049%=      5-min Rain = 0
KUM1 112133Z 01024G30KT M01/M11 A3047 RMK A01 T10121106  RH  049%=      5-min Rain = 0
KUM1 112134Z 01026KT M01/M11 A3047 RMK A01 T10121107  RH  048%=      5-min Rain = 0
KUM1 112135Z 01026KT M01/M11 A3047 RMK A01 T10141110  RH  048%=      5-min Rain = 0
KUM1 112136Z 01022KT M02/M11 A3047 RMK A01 T10151110  RH  048%=      5-min Rain = 0
KUM1 112137Z 01024KT M02/M11 A3047 RMK A01 T10151109  RH  048%=      5-min Rain = 0
KUM1 112138Z 01022KT M02/M11 A3047 RMK A01 T10151111  RH  048%=      5-min Rain = 0
KUM1 112139Z 01023G29KT M02/M11 A3047 RMK A01 T10151111  RH  048%=      5-min Rain = 0
KUM1 112140Z 01024KT M01/M11 A3047 RMK A01 T10141110  RH  048%=      5-min Rain = 0
KUM1 112141Z 01027KT M01/M11 A3047 RMK A01 T10141111  RH  048%=      5-min Rain = 0
KUM1 112142Z 01024KT M02/M11 A3047 RMK A01 T10151113  RH  047%=      5-min Rain = 0
KUM1 112143Z 01023KT M01/M11 A3047 RMK A01 T10131109  RH  048%=      5-min Rain = 0
KUM1 112144Z 01021KT M01/M11 A3047 RMK A01 T10101108  RH  047%=      5-min Rain = 0
KUM1 112145Z 02023G28KT M01/M11 A3047 RMK A01 T10101109  RH  047%=      5-min Rain = 0
KUM1 112146Z 01022KT M01/M11 A3047 RMK A01 T10101110  RH  047%=      5-min Rain = 0
KUM1 112147Z 02024G30KT M01/M11 A3047 RMK A01 T10121112  RH  046%=      5-min Rain = 0
KUM1 112148Z 00026G31KT M02/M12 A3047 RMK A01 T10151115  RH  047%=      5-min Rain = 0
KUM1 112149Z 01025G30KT M02/M12 A3047 RMK A01 T10171116  RH  047%=      5-min Rain = 0
KUM1 112150Z 01024G29KT M02/M12 A3047 RMK A01 T10181116  RH  047%=      5-min Rain = 0
KUM1 112151Z 01020KT M02/M11 A3047 RMK A01 T10171114  RH  047%=      5-min Rain = 0
KUM1 112152Z 02021G26KT M02/M11 A3047 RMK A01 T10151113  RH  048%=      5-min Rain = 0
KUM1 112153Z 01023G28KT M02/M11 A3047 RMK A01 T10151113  RH  047%=      5-min Rain = 0
KUM1 112154Z 01025G30KT M02/M12 A3047 RMK A01 T10161115  RH  047%=      5-min Rain = 0
KUM1 112155Z 01023KT M02/M12 A3048 RMK A01 T10171115  RH  047%=      5-min Rain = 0
KUM1 112156Z 01022KT M02/M11 A3048 RMK A01 T10151113  RH  047%=      5-min Rain = 0
KUM1 112157Z 01022G27KT M01/M11 A3047 RMK A01 T10141113  RH  047%=      5-min Rain = 0
KUM1 112158Z 01022KT M01/M12 A3048 RMK A01 T10131115  RH  046%=      5-min Rain = 0
KUM1 112159Z 01022KT M01/M12 A3048 RMK A01 T10141116  RH  046%=      5-min Rain = 0
KUM1 112200Z 01022G27KT M02/M12 A3048 RMK A01 T10151117  RH  046%=      5-min Rain = 0
KUM1 112201Z 01022G30KT M02/M12 A3048 RMK A01 T10151116  RH  046%=      5-min Rain = 0
KUM1 112202Z 02025G30KT M02/M12 A3048 RMK A01 T10151117  RH  046%=      5-min Rain = 0
KUM1 112203Z 00024KT M02/M12 A3048 RMK A01 T10171120  RH  045%=      5-min Rain = 0
KUM1 112204Z 01023G28KT M02/M12 A3048 RMK A01 T10191121  RH  046%=      5-min Rain = 0
KUM1 112205Z 02022KT M02/M12 A3049 RMK A01 T10191121  RH  046%=      5-min Rain = 0
KUM1 112206Z 02023KT M02/M12 A3049 RMK A01 T10191119  RH  046%=      5-min Rain = 0
KUM1 112207Z 02025KT M02/M12 A3049 RMK A01 T10191120  RH  046%=      5-min Rain = 0
KUM1 112208Z 03027KT M02/M12 A3049 RMK A01 T10191121  RH  046%=      5-min Rain = 0
KUM1 112209Z 02024G29KT M02/M12 A3049 RMK A01 T10191122  RH  045%=      5-min Rain = 0
KUM1 112210Z 02024KT M02/M12 A3049 RMK A01 T10191122  RH  045%=      5-min Rain = 0
KUM1 112211Z 02026KT M02/M12 A3049 RMK A01 T10191122  RH  045%=      5-min Rain = 0
KUM1 112212Z 02022KT M02/M12 A3049 RMK A01 T10201124  RH  045%=      5-min Rain = 0
KUM1 112213Z 02023KT M02/M12 A3049 RMK A01 T10201124  RH  045%=      5-min Rain = 0
KUM1 112214Z 02023KT M02/M12 A3049 RMK A01 T10191123  RH  045%=      5-min Rain = 0
KUM1 112215Z 02019KT M02/M12 A3049 RMK A01 T10201123  RH  045%=      5-min Rain = 0
KUM1 112216Z 02024G29KT M02/M12 A3049 RMK A01 T10191123  RH  045%=      5-min Rain = 0
KUM1 112217Z 02022G27KT M02/M13 A3049 RMK A01 T10201125  RH  045%=      5-min Rain = 0
KUM1 112218Z 02026KT M02/M13 A3049 RMK A01 T10201125  RH  045%=      5-min Rain = 0
KUM1 112219Z 01023KT M02/M13 A3049 RMK A01 T10211126  RH  045%=      5-min Rain = 0
KUM1 112220Z 01023KT M02/M13 A3049 RMK A01 T10221126  RH  045%=      5-min Rain = 0
KUM1 112221Z 01024KT M02/M13 A3049 RMK A01 T10221126  RH  045%=      5-min Rain = 0
KUM1 112222Z 01023KT M02/M13 A3049 RMK A01 T10231127  RH  045%=      5-min Rain = 0
KUM1 112223Z 01024KT M02/M13 A3049 RMK A01 T10241128  RH  045%=      5-min Rain = 0
KUM1 112224Z 01023G28KT M03/M13 A3049 RMK A01 T10251128  RH  045%=      5-min Rain = 0
KUM1 112225Z 01024KT M03/M13 A3049 RMK A01 T10251127  RH  045%=      5-min Rain = 0
KUM1 112226Z 01025KT M02/M13 A3049 RMK A01 T10241126  RH  045%=      5-min Rain = 0
KUM1 112227Z 01020KT M02/M13 A3049 RMK A01 T10241126  RH  045%=      5-min Rain = 0
KUM1 112228Z 01022KT M02/M12 A3049 RMK A01 T10221124  RH  046%=      5-min Rain = 0
KUM1 112229Z 01022KT M02/M12 A3049 RMK A01 T10211124  RH  045%=      5-min Rain = 0
KUM1 112230Z 01021KT M02/M13 A3049 RMK A01 T10221125  RH  045%=      5-min Rain = 0
KUM1 112231Z 02019KT M02/M13 A3049 RMK A01 T10221125  RH  045%=      5-min Rain = 0
KUM1 112232Z 02019KT M02/M12 A3049 RMK A01 T10221124  RH  045%=      5-min Rain = 0
KUM1 112233Z 02020KT M02/M12 A3049 RMK A01 T10221124  RH  045%=      5-min Rain = 0
KUM1 112234Z 02021KT M02/M13 A3049 RMK A01 T10231127  RH  045%=      5-min Rain = 0
KUM1 112235Z 02020KT M03/M13 A3049 RMK A01 T10251128  RH  045%=      5-min Rain = 0
KUM1 112236Z 02018KT M03/M13 A3049 RMK A01 T10261127  RH  046%=      5-min Rain = 0
KUM1 112237Z 02022KT M03/M13 A3049 RMK A01 T10261126  RH  046%=      5-min Rain = 0
KUM1 112238Z 00022KT M03/M13 A3049 RMK A01 T10261126  RH  046%=      5-min Rain = 0
KUM1 112239Z 00022G27KT M03/M13 A3049 RMK A01 T10271127  RH  046%=      5-min Rain = 0
KUM1 112240Z 01021KT M03/M13 A3049 RMK A01 T10271127  RH  046%=      5-min Rain = 0
KUM1 112241Z 01019G24KT M03/M13 A305 RMK A01 T10271127  RH  046%=      5-min Rain = 0
KUM1 112242Z 02019KT M03/M13 A305 RMK A01 T10271126  RH  046%=      5-min Rain = 0
KUM1 112243Z 02020G25KT M03/M13 A305 RMK A01 T10261126  RH  046%=      5-min Rain = 0
KUM1 112244Z 02017KT M03/M13 A305 RMK A01 T10271127  RH  046%=      5-min Rain = 0
KUM1 112245Z 01020KT M03/M13 A305 RMK A01 T10271127  RH  046%=      5-min Rain = 0
KUM1 112246Z 01020KT M03/M13 A305 RMK A01 T10271127  RH  046%=      5-min Rain = 0
KUM1 112247Z 01019KT M03/M13 A305 RMK A01 T10271126  RH  046%=      5-min Rain = 0
KUM1 112248Z 01020KT M03/M13 A305 RMK A01 T10271126  RH  046%=      5-min Rain = 0
KUM1 112249Z 01019KT M03/M13 A305 RMK A01 T10271127  RH  046%=      5-min Rain = 0
KUM1 112250Z 01018KT M03/M13 A305 RMK A01 T10281128  RH  046%=      5-min Rain = 0
KUM1 112251Z 01019KT M03/M13 A305 RMK A01 T10271126  RH  046%=      5-min Rain = 0
KUM1 112252Z 01021KT M03/M13 A305 RMK A01 T10261127  RH  046%=      5-min Rain = 0
KUM1 112253Z 01022KT M03/M13 A3051 RMK A01 T10261127  RH  046%=      5-min Rain = 0
KUM1 112254Z 01019KT M03/M13 A3051 RMK A01 T10271129  RH  045%=      5-min Rain = 0
KUM1 112255Z 01021KT M03/M13 A3051 RMK A01 T10271130  RH  045%=      5-min Rain = 0
KUM1 112256Z 01019KT M03/M13 A3051 RMK A01 T10281131  RH  045%=      5-min Rain = 0
KUM1 112257Z 02018KT M03/M13 A3051 RMK A01 T10281131  RH  045%=      5-min Rain = 0
KUM1 112258Z 01020KT M03/M13 A3051 RMK A01 T10281131  RH  045%=      5-min Rain = 0
KUM1 112259Z 01018KT M03/M13 A3051 RMK A01 T10291132  RH  045%=      5-min Rain = 0
KUM1 112300Z 01018KT M03/M13 A3051 RMK A01 T10301133  RH  045%=      5-min Rain = 0
KUM1 112301Z 01018KT M03/M13 A3051 RMK A01 T10301134  RH  045%=      5-min Rain = 0
KUM1 112302Z 02019KT M03/M13 A3051 RMK A01 T10301133  RH  045%=      5-min Rain = 0
KUM1 112303Z 02020KT M03/M13 A3051 RMK A01 T10301133  RH  045%=      5-min Rain = 0
KUM1 112304Z 02019KT M03/M13 A3051 RMK A01 T10301133  RH  045%=      5-min Rain = 0
KUM1 112305Z 02019KT M03/M13 A3051 RMK A01 T10291132  RH  045%=      5-min Rain = 0
KUM1 112306Z 02022KT M03/M13 A3051 RMK A01 T10291133  RH  045%=      5-min Rain = 0
KUM1 112307Z 03022KT M03/M13 A3051 RMK A01 T10291133  RH  045%=      5-min Rain = 0
KUM1 112308Z 02021KT M03/M13 A3051 RMK A01 T10291134  RH  044%=      5-min Rain = 0
KUM1 112309Z 02016KT M03/M13 A3051 RMK A01 T10301134  RH  044%=      5-min Rain = 0
KUM1 112310Z 02020KT M03/M13 A3051 RMK A01 T10301133  RH  045%=      5-min Rain = 0
KUM1 112311Z 02017KT M03/M13 A3051 RMK A01 T10301134  RH  045%=      5-min Rain = 0
KUM1 112312Z 02016KT M03/M13 A3052 RMK A01 T10301133  RH  045%=      5-min Rain = 0
KUM1 112313Z 02017KT M03/M13 A3052 RMK A01 T10301132  RH  045%=      5-min Rain = 0
KUM1 112314Z 02016KT M03/M13 A3052 RMK A01 T10301132  RH  045%=      5-min Rain = 0
KUM1 112315Z 01017KT M03/M13 A3052 RMK A01 T10311132  RH  045%=      5-min Rain = 0
KUM1 112316Z 02018KT M03/M13 A3052 RMK A01 T10311133  RH  045%=      5-min Rain = 0
KUM1 112317Z 02018KT M03/M13 A3052 RMK A01 T10311133  RH  045%=      5-min Rain = 0
KUM1 112318Z 02016KT M03/M13 A3052 RMK A01 T10321133  RH  045%=      5-min Rain = 0
KUM1 112319Z 02017KT M03/M13 A3052 RMK A01 T10321133  RH  046%=      5-min Rain = 0
KUM1 112320Z 02016KT M03/M13 A3052 RMK A01 T10321133  RH  046%=      5-min Rain = 0
KUM1 112321Z 02017KT M03/M13 A3052 RMK A01 T10321133  RH  046%=      5-min Rain = 0
KUM1 112322Z 02017KT M03/M13 A3052 RMK A01 T10321133  RH  046%=      5-min Rain = 0
KUM1 112323Z 02017KT M03/M13 A3052 RMK A01 T10321133  RH  046%=      5-min Rain = 0
KUM1 112324Z 02016KT M03/M13 A3052 RMK A01 T10331134  RH  046%=      5-min Rain = 0
KUM1 112325Z 02015KT M03/M13 A3052 RMK A01 T10331134  RH  046%=      5-min Rain = 0
KUM1 112326Z 02016KT M03/M13 A3053 RMK A01 T10331133  RH  046%=      5-min Rain = 0
KUM1 112327Z 02017KT M03/M13 A3053 RMK A01 T10331133  RH  046%=      5-min Rain = 0
KUM1 112328Z 02014KT M03/M13 A3053 RMK A01 T10331133  RH  046%=      5-min Rain = 0
KUM1 112329Z 02013G18KT M03/M13 A3053 RMK A01 T10331133  RH  046%=      5-min Rain = 0
KUM1 112330Z 02018KT M03/M13 A3053 RMK A01 T10331133  RH  046%=      5-min Rain = 0
KUM1 112331Z 02015KT M03/M13 A3053 RMK A01 T10331133  RH  046%=      5-min Rain = 0
KUM1 112332Z 03017KT M03/M13 A3053 RMK A01 T10331133  RH  046%=      5-min Rain = 0
KUM1 112333Z 02015KT M03/M13 A3053 RMK A01 T10341133  RH  046%=      5-min Rain = 0
KUM1 112334Z 02015KT M03/M13 A3053 RMK A01 T10341132  RH  046%=      5-min Rain = 0
KUM1 112335Z 02014KT M03/M13 A3053 RMK A01 T10341132  RH  047%=      5-min Rain = 0
KUM1 112336Z 02016KT M04/M13 A3053 RMK A01 T10351132  RH  047%=      5-min Rain = 0
KUM1 112337Z 02017KT M04/M13 A3053 RMK A01 T10351132  RH  047%=      5-min Rain = 0
KUM1 112338Z 02014KT M04/M13 A3053 RMK A01 T10351133  RH  047%=      5-min Rain = 0
KUM1 112339Z 02016KT M04/M13 A3053 RMK A01 T10351132  RH  047%=      5-min Rain = 0
KUM1 112340Z 01017KT M04/M13 A3053 RMK A01 T10351133  RH  047%=      5-min Rain = 0
KUM1 112341Z 02014KT M04/M13 A3053 RMK A01 T10351133  RH  047%=      5-min Rain = 0
KUM1 112342Z 02013KT M04/M13 A3053 RMK A01 T10351133  RH  047%=      5-min Rain = 0
KUM1 112343Z 02011KT M04/M13 A3053 RMK A01 T10361133  RH  047%=      5-min Rain = 0
KUM1 112344Z 02012KT M04/M13 A3053 RMK A01 T10361132  RH  047%=      5-min Rain = 0
KUM1 112345Z 02012KT M04/M13 A3053 RMK A01 T10371132  RH  048%=      5-min Rain = 0
KUM1 112346Z 02010KT M04/M13 A3053 RMK A01 T10371132  RH  048%=      5-min Rain = 0
KUM1 112347Z 02011KT M04/M13 A3054 RMK A01 T10381132  RH  048%=      5-min Rain = 0
KUM1 112348Z 02011KT M04/M13 A3054 RMK A01 T10381132  RH  048%=      5-min Rain = 0
KUM1 112349Z 02011KT M04/M13 A3054 RMK A01 T10391132  RH  048%=      5-min Rain = 0
KUM1 112350Z 02012KT M04/M13 A3054 RMK A01 T10391132  RH  048%=      5-min Rain = 0
KUM1 112351Z 02012KT M04/M13 A3054 RMK A01 T10391132  RH  048%=      5-min Rain = 0
KUM1 112352Z 02012KT M04/M13 A3054 RMK A01 T10391132  RH  048%=      5-min Rain = 0
KUM1 112353Z 02011KT M04/M13 A3054 RMK A01 T10391132  RH  048%=      5-min Rain = 0
KUM1 112354Z 02011KT M04/M13 A3054 RMK A01 T10391132  RH  049%=      5-min Rain = 0
KUM1 112355Z 02013KT M04/M13 A3054 RMK A01 T10401132  RH  049%=      5-min Rain = 0
KUM1 112356Z 02012KT M04/M13 A3054 RMK A01 T10401132  RH  049%=      5-min Rain = 0
KUM1 112357Z 02011KT M04/M13 A3054 RMK A01 T10401131  RH  049%=      5-min Rain = 0
KUM1 112358Z 02012KT M04/M13 A3054 RMK A01 T10411132  RH  049%=      5-min Rain = 0
KUM1 112359Z 02012KT M04/M13 A3054 RMK A01 T10411132  RH  049%=      5-min Rain = 0
KUM1 120000Z 02011KT M04/M13 A3055 RMK A01 T10411132  RH  049%=      5-min Rain = 0
KUM1 120001Z 02011KT M04/M13 A3055 RMK A01 T10401132  RH  049%=      5-min Rain = 0
KUM1 120002Z 02011KT M04/M13 A3055 RMK A01 T10401132  RH  049%=      5-min Rain = 0
KUM1 120003Z 02009KT M04/M13 A3055 RMK A01 T10411132  RH  049%=      5-min Rain = 0
KUM1 120004Z 02009KT M04/M13 A3055 RMK A01 T10411132  RH  049%=      5-min Rain = 0
KUM1 120005Z 02009KT M04/M13 A3055 RMK A01 T10421132  RH  049%=      5-min Rain = 0
KUM1 120006Z 02009KT M04/M13 A3055 RMK A01 T10421132  RH  049%=      5-min Rain = 0
KUM1 120007Z 02011KT M04/M13 A3055 RMK A01 T10421132  RH  049%=      5-min Rain = 0
KUM1 120008Z 02009KT M04/M13 A3055 RMK A01 T10421132  RH  049%=      5-min Rain = 0
KUM1 120009Z 02010KT M04/M13 A3055 RMK A01 T10421132  RH  049%=      5-min Rain = 0
KUM1 120010Z 02010KT M04/M13 A3055 RMK A01 T10421132  RH  049%=      5-min Rain = 0
KUM1 120011Z 02011KT M04/M13 A3055 RMK A01 T10421132  RH  049%=      5-min Rain = 0
KUM1 120012Z 02011KT M04/M13 A3055 RMK A01 T10411132  RH  049%=      5-min Rain = 0
KUM1 120013Z 02010KT M04/M13 A3055 RMK A01 T10411132  RH  049%=      5-min Rain = 0
KUM1 120014Z 02009KT M04/M13 A3055 RMK A01 T10421132  RH  050%=      5-min Rain = 0
KUM1 120015Z 01010KT M04/M13 A3055 RMK A01 T10421132  RH  050%=      5-min Rain = 0
KUM1 120016Z 02011KT M04/M13 A3055 RMK A01 T10431132  RH  050%=      5-min Rain = 0
KUM1 120017Z 02009KT M04/M13 A3055 RMK A01 T10431132  RH  050%=      5-min Rain = 0
KUM1 120018Z 02012KT M04/M13 A3055 RMK A01 T10431132  RH  050%=      5-min Rain = 0
KUM1 120019Z 01012KT M04/M13 A3055 RMK A01 T10431132  RH  050%=      5-min Rain = 0
KUM1 120020Z 02010KT M04/M13 A3055 RMK A01 T10421132  RH  050%=      5-min Rain = 0
KUM1 120021Z 01011KT M04/M13 A3055 RMK A01 T10431132  RH  050%=      5-min Rain = 0
KUM1 120022Z 02010KT M04/M13 A3055 RMK A01 T10431132  RH  050%=      5-min Rain = 0
KUM1 120023Z 02010KT M04/M13 A3055 RMK A01 T10431132  RH  050%=      5-min Rain = 0
KUM1 120024Z 01011KT M04/M13 A3055 RMK A01 T10441132  RH  050%=      5-min Rain = 0
KUM1 120025Z 01010KT M04/M13 A3055 RMK A01 T10441132  RH  050%=      5-min Rain = 0
KUM1 120026Z 02010KT M04/M13 A3055 RMK A01 T10441132  RH  050%=      5-min Rain = 0
KUM1 120027Z 02011KT M05/M13 A3055 RMK A01 T10451132  RH  050%=      5-min Rain = 0
KUM1 120028Z 01011KT M04/M13 A3055 RMK A01 T10441133  RH  050%=      5-min Rain = 0
KUM1 120029Z 01011KT M04/M13 A3055 RMK A01 T10441133  RH  050%=      5-min Rain = 0
KUM1 120030Z 02012KT M04/M13 A3055 RMK A01 T10441133  RH  050%=      5-min Rain = 0
KUM1 120031Z 02012KT M04/M13 A3055 RMK A01 T10441133  RH  050%=      5-min Rain = 0
KUM1 120032Z 02012KT M04/M13 A3055 RMK A01 T10441134  RH  050%=      5-min Rain = 0
KUM1 120033Z 02012KT M04/M13 A3055 RMK A01 T10441134  RH  049%=      5-min Rain = 0
KUM1 120034Z 02013KT M04/M13 A3055 RMK A01 T10441134  RH  049%=      5-min Rain = 0
KUM1 120035Z 02012KT M04/M14 A3055 RMK A01 T10441135  RH  049%=      5-min Rain = 0
KUM1 120036Z 02012KT M04/M14 A3055 RMK A01 T10441135  RH  049%=      5-min Rain = 0
KUM1 120037Z 02013KT M04/M14 A3055 RMK A01 T10441135  RH  049%=      5-min Rain = 0
KUM1 120038Z 02012KT M04/M14 A3055 RMK A01 T10441136  RH  049%=      5-min Rain = 0
KUM1 120039Z 02012KT M04/M14 A3055 RMK A01 T10441136  RH  049%=      5-min Rain = 0
KUM1 120040Z 02011KT M05/M14 A3055 RMK A01 T10451136  RH  049%=      5-min Rain = 0
KUM1 120041Z 02012KT M05/M14 A3055 RMK A01 T10451136  RH  049%=      5-min Rain = 0
KUM1 120042Z 02012KT M05/M14 A3055 RMK A01 T10461136  RH  049%=      5-min Rain = 0
KUM1 120043Z 02012KT M05/M14 A3055 RMK A01 T10461136  RH  049%=      5-min Rain = 0
KUM1 120044Z 02012KT M05/M14 A3055 RMK A01 T10461137  RH  049%=      5-min Rain = 0
KUM1 120045Z 01012KT M05/M14 A3055 RMK A01 T10461136  RH  049%=      5-min Rain = 0
KUM1 120046Z 02012KT M05/M14 A3055 RMK A01 T10461137  RH  049%=      5-min Rain = 0
KUM1 120047Z 02013KT M05/M14 A3055 RMK A01 T10461137  RH  049%=      5-min Rain = 0
KUM1 120048Z 02012KT M05/M14 A3055 RMK A01 T10461137  RH  049%=      5-min Rain = 0
KUM1 120049Z 02012KT M05/M14 A3055 RMK A01 T10461137  RH  049%=      5-min Rain = 0
KUM1 120050Z 02012KT M05/M14 A3055 RMK A01 T10471137  RH  049%=      5-min Rain = 0
KUM1 120051Z 02013KT M05/M14 A3055 RMK A01 T10471138  RH  049%=      5-min Rain = 0
KUM1 120052Z 02012KT M05/M14 A3055 RMK A01 T10471138  RH  049%=      5-min Rain = 0
KUM1 120053Z 02012KT M05/M14 A3055 RMK A01 T10471138  RH  049%=      5-min Rain = 0
KUM1 120054Z 02012KT M05/M14 A3055 RMK A01 T10471138  RH  049%=      5-min Rain = 0
KUM1 120055Z 02011KT M05/M14 A3055 RMK A01 T10471138  RH  049%=      5-min Rain = 0
KUM1 120056Z 02011KT M05/M14 A3055 RMK A01 T10481138  RH  049%=      5-min Rain = 0
KUM1 120057Z 02012KT M05/M14 A3055 RMK A01 T10481138  RH  049%=      5-min Rain = 0
KUM1 120058Z 02012KT M05/M14 A3055 RMK A01 T10481138  RH  049%=      5-min Rain = 0
KUM1 120059Z 02011KT M05/M14 A3055 RMK A01 T10481138  RH  049%=      5-min Rain = 0
KUM1 120100Z 02011KT M05/M14 A3055 RMK A01 T10481138  RH  050%=      5-min Rain = 0
KUM1 120101Z 02012KT M05/M14 A3055 RMK A01 T10491138  RH  050%=      5-min Rain = 0
KUM1 120102Z 02012KT M05/M14 A3055 RMK A01 T10491138  RH  050%=      5-min Rain = 0
KUM1 120103Z 02011KT M05/M14 A3055 RMK A01 T10491138  RH  050%=      5-min Rain = 0
KUM1 120104Z 02011KT M05/M14 A3055 RMK A01 T10491138  RH  050%=      5-min Rain = 0
KUM1 120105Z 02011KT M05/M14 A3055 RMK A01 T10501138  RH  050%=      5-min Rain = 0
KUM1 120106Z 01010KT M05/M14 A3055 RMK A01 T10501138  RH  050%=      5-min Rain = 0
KUM1 120107Z 02010KT M05/M14 A3055 RMK A01 T10511138  RH  050%=      5-min Rain = 0
KUM1 120108Z 02010KT M05/M14 A3056 RMK A01 T10511138  RH  051%=      5-min Rain = 0
KUM1 120109Z 02010KT M05/M14 A3056 RMK A01 T10511138  RH  051%=      5-min Rain = 0
KUM1 120110Z 02010KT M05/M14 A3056 RMK A01 T10511138  RH  050%=      5-min Rain = 0
KUM1 120111Z 01009KT M05/M14 A3056 RMK A01 T10511138  RH  050%=      5-min Rain = 0
KUM1 120112Z 02010KT M05/M14 A3056 RMK A01 T10511138  RH  050%=      5-min Rain = 0
KUM1 120113Z 02009KT M05/M14 A3056 RMK A01 T10511138  RH  050%=      5-min Rain = 0
KUM1 120114Z 02010KT M05/M14 A3056 RMK A01 T10511138  RH  050%=      5-min Rain = 0
KUM1 120115Z 02009KT M05/M14 A3056 RMK A01 T10511138  RH  050%=      5-min Rain = 0
KUM1 120116Z 01009KT M05/M14 A3056 RMK A01 T10521138  RH  051%=      5-min Rain = 0
KUM1 120117Z 02009KT M05/M14 A3056 RMK A01 T10521138  RH  051%=      5-min Rain = 0
KUM1 120118Z 02010KT M05/M14 A3056 RMK A01 T10521138  RH  051%=      5-min Rain = 0
KUM1 120119Z 02009KT M05/M14 A3056 RMK A01 T10531138  RH  051%=      5-min Rain = 0
KUM1 120120Z 01010KT M05/M14 A3056 RMK A01 T10531138  RH  051%=      5-min Rain = 0
KUM1 120121Z 02009KT M05/M14 A3056 RMK A01 T10531138  RH  051%=      5-min Rain = 0
KUM1 120122Z 01009KT M05/M14 A3056 RMK A01 T10531138  RH  051%=      5-min Rain = 0
KUM1 120123Z 02009KT M05/M14 A3056 RMK A01 T10531138  RH  051%=      5-min Rain = 0
KUM1 120124Z 01009KT M05/M14 A3056 RMK A01 T10541138  RH  052%=      5-min Rain = 0
KUM1 120125Z 01009KT M05/M14 A3056 RMK A01 T10541138  RH  052%=      5-min Rain = 0
KUM1 120126Z 01008KT M06/M14 A3056 RMK A01 T10551138  RH  052%=      5-min Rain = 0
KUM1 120127Z 02008KT M06/M14 A3056 RMK A01 T10551137  RH  052%=      5-min Rain = 0
KUM1 120128Z 02008KT M06/M14 A3057 RMK A01 T10551137  RH  052%=      5-min Rain = 0
KUM1 120129Z 02007KT M06/M14 A3057 RMK A01 T10551137  RH  052%=      5-min Rain = 0
KUM1 120130Z 02008KT M06/M14 A3057 RMK A01 T10551137  RH  053%=      5-min Rain = 0
KUM1 120131Z 02007KT M06/M14 A3057 RMK A01 T10561137  RH  053%=      5-min Rain = 0
KUM1 120132Z 02007KT M06/M14 A3057 RMK A01 T10561137  RH  053%=      5-min Rain = 0
KUM1 120133Z 02006KT M06/M14 A3057 RMK A01 T10571137  RH  053%=      5-min Rain = 0
KUM1 120134Z 02006KT M06/M14 A3057 RMK A01 T10571137  RH  053%=      5-min Rain = 0
KUM1 120135Z 02006KT M06/M14 A3057 RMK A01 T10581137  RH  054%=      5-min Rain = 0
KUM1 120136Z 02006KT M06/M14 A3057 RMK A01 T10591138  RH  054%=      5-min Rain = 0
KUM1 120137Z 02007KT M06/M14 A3057 RMK A01 T10591137  RH  054%=      5-min Rain = 0
KUM1 120138Z 02006KT M06/M14 A3057 RMK A01 T10591137  RH  054%=      5-min Rain = 0
KUM1 120139Z 02007KT M06/M14 A3057 RMK A01 T10601137  RH  054%=      5-min Rain = 0
KUM1 120140Z 02007KT M06/M14 A3057 RMK A01 T10601137  RH  054%=      5-min Rain = 0
KUM1 120141Z 02007KT M06/M14 A3057 RMK A01 T10611137  RH  055%=      5-min Rain = 0
KUM1 120142Z 02007KT M06/M14 A3057 RMK A01 T10611137  RH  055%=      5-min Rain = 0
KUM1 120143Z 02006KT M06/M14 A3057 RMK A01 T10621137  RH  055%=      5-min Rain = 0
KUM1 120144Z 02006KT M06/M14 A3057 RMK A01 T10621137  RH  055%=      5-min Rain = 0
KUM1 120145Z 02007KT M06/M14 A3057 RMK A01 T10631137  RH  056%=      5-min Rain = 0
KUM1 120146Z 02006KT M06/M14 A3057 RMK A01 T10631137  RH  056%=      5-min Rain = 0
KUM1 120147Z 02006KT M06/M14 A3057 RMK A01 T10631137  RH  056%=      5-min Rain = 0
KUM1 120148Z 02007KT M06/M14 A3057 RMK A01 T10641137  RH  056%=      5-min Rain = 0
KUM1 120149Z 02007KT M06/M14 A3057 RMK A01 T10641137  RH  056%=      5-min Rain = 0
KUM1 120150Z 02007KT M06/M14 A3057 RMK A01 T10641137  RH  056%=      5-min Rain = 0
KUM1 120151Z 02007KT M06/M14 A3057 RMK A01 T10641137  RH  056%=      5-min Rain = 0
KUM1 120152Z 01007KT M06/M14 A3057 RMK A01 T10641136  RH  056%=      5-min Rain = 0
KUM1 120153Z 01007KT M06/M14 A3058 RMK A01 T10641136  RH  056%=      5-min Rain = 0
KUM1 120154Z 01007KT M06/M14 A3058 RMK A01 T10641136  RH  057%=      5-min Rain = 0
KUM1 120155Z 01007KT M06/M14 A3058 RMK A01 T10641136  RH  057%=      5-min Rain = 0
KUM1 120156Z 01008KT M06/M14 A3058 RMK A01 T10641136  RH  057%=      5-min Rain = 0
KUM1 120157Z 01007KT M06/M14 A3058 RMK A01 T10641136  RH  057%=      5-min Rain = 0
KUM1 120158Z 02008KT M06/M14 A3057 RMK A01 T10641136  RH  057%=      5-min Rain = 0
KUM1 120159Z 02008KT M06/M14 A3057 RMK A01 T10641136  RH  057%=      5-min Rain = 0
KUM1 120200Z 02008KT M06/M14 A3057 RMK A01 T10641136  RH  057%=      5-min Rain = 0
KUM1 120201Z 02007KT M07/M14 A3057 RMK A01 T10651136  RH  057%=      5-min Rain = 0
KUM1 120202Z 02007KT M07/M14 A3057 RMK A01 T10651136  RH  057%=      5-min Rain = 0
KUM1 120203Z 02007KT M07/M14 A3057 RMK A01 T10651136  RH  057%=      5-min Rain = 0
KUM1 120204Z 02007KT M07/M14 A3058 RMK A01 T10661136  RH  057%=      5-min Rain = 0
KUM1 120205Z 02006KT M07/M14 A3058 RMK A01 T10661136  RH  058%=      5-min Rain = 0
KUM1 120206Z 02006KT M07/M14 A3058 RMK A01 T10661136  RH  058%=      5-min Rain = 0
KUM1 120207Z 02006KT M07/M14 A3058 RMK A01 T10671136  RH  058%=      5-min Rain = 0
KUM1 120208Z 02006KT M07/M14 A3058 RMK A01 T10671136  RH  058%=      5-min Rain = 0
KUM1 120209Z 02006KT M07/M14 A3058 RMK A01 T10671136  RH  058%=      5-min Rain = 0
KUM1 120210Z 02006KT M07/M14 A3058 RMK A01 T10671136  RH  058%=      5-min Rain = 0
KUM1 120211Z 02006KT M07/M14 A3058 RMK A01 T10671136  RH  058%=      5-min Rain = 0
KUM1 120212Z 02006KT M07/M14 A3058 RMK A01 T10681136  RH  058%=      5-min Rain = 0
KUM1 120213Z 01006KT M07/M14 A3058 RMK A01 T10681136  RH  058%=      5-min Rain = 0
KUM1 120214Z 02006KT M07/M14 A3058 RMK A01 T10681136  RH  059%=      5-min Rain = 0
KUM1 120215Z 02006KT M07/M14 A3058 RMK A01 T10681136  RH  059%=      5-min Rain = 0
KUM1 120216Z 02006KT M07/M14 A3058 RMK A01 T10681135  RH  059%=      5-min Rain = 0
KUM1 120217Z 02006KT M07/M14 A3058 RMK A01 T10691136  RH  059%=      5-min Rain = 0
KUM1 120218Z 02006KT M07/M14 A3058 RMK A01 T10691135  RH  059%=      5-min Rain = 0
KUM1 120219Z 02006KT M07/M14 A3058 RMK A01 T10691136  RH  059%=      5-min Rain = 0
KUM1 120220Z 02006KT M07/M14 A3058 RMK A01 T10691136  RH  059%=      5-min Rain = 0
KUM1 120221Z 02006KT M07/M14 A3058 RMK A01 T10691136  RH  059%=      5-min Rain = 0
KUM1 120222Z 02007KT M07/M14 A3058 RMK A01 T10691136  RH  059%=      5-min Rain = 0
KUM1 120223Z 02007KT M07/M14 A3058 RMK A01 T10701136  RH  059%=      5-min Rain = 0
KUM1 120224Z 02007KT M07/M14 A3058 RMK A01 T10701136  RH  059%=      5-min Rain = 0
KUM1 120225Z 02007KT M07/M14 A3058 RMK A01 T10701136  RH  059%=      5-min Rain = 0
KUM1 120226Z 02007KT M07/M14 A3058 RMK A01 T10711136  RH  060%=      5-min Rain = 0
KUM1 120227Z 02007KT M07/M14 A3058 RMK A01 T10711136  RH  060%=      5-min Rain = 0
KUM1 120228Z 02007KT M07/M14 A3058 RMK A01 T10711136  RH  060%=      5-min Rain = 0
KUM1 120229Z 02007KT M07/M14 A3058 RMK A01 T10711136  RH  060%=      5-min Rain = 0
KUM1 120230Z 02007KT M07/M14 A3058 RMK A01 T10711136  RH  060%=      5-min Rain = 0
KUM1 120231Z 02007KT M07/M14 A3058 RMK A01 T10711136  RH  060%=      5-min Rain = 0
KUM1 120232Z 02007KT M07/M14 A3058 RMK A01 T10711136  RH  060%=      5-min Rain = 0
KUM1 120233Z 02007KT M07/M14 A3058 RMK A01 T10711136  RH  060%=      5-min Rain = 0
KUM1 120234Z 02007KT M07/M14 A3058 RMK A01 T10711136  RH  060%=      5-min Rain = 0
KUM1 120235Z 02006KT M07/M14 A3058 RMK A01 T10721137  RH  060%=      5-min Rain = 0
KUM1 120236Z 02007KT M07/M14 A3058 RMK A01 T10731137  RH  060%=      5-min Rain = 0
KUM1 120237Z 01007KT M07/M14 A3058 RMK A01 T10731137  RH  060%=      5-min Rain = 0
KUM1 120238Z 01007KT M07/M14 A3058 RMK A01 T10731136  RH  061%=      5-min Rain = 0
KUM1 120239Z 02007KT M07/M14 A3058 RMK A01 T10731136  RH  061%=      5-min Rain = 0
KUM1 120240Z 02007KT M07/M14 A3058 RMK A01 T10731136  RH  061%=      5-min Rain = 0
KUM1 120241Z 02007KT M07/M14 A3058 RMK A01 T10731136  RH  061%=      5-min Rain = 0
KUM1 120242Z 02007KT M07/M14 A3058 RMK A01 T10741136  RH  061%=      5-min Rain = 0
KUM1 120243Z 02007KT M07/M14 A3058 RMK A01 T10741136  RH  061%=      5-min Rain = 0
KUM1 120244Z 02007KT M07/M14 A3058 RMK A01 T10741136  RH  061%=      5-min Rain = 0
KUM1 120245Z 01007KT M08/M14 A3059 RMK A01 T10751136  RH  061%=      5-min Rain = 0
KUM1 120246Z 01007KT M08/M14 A3059 RMK A01 T10751136  RH  062%=      5-min Rain = 0
KUM1 120247Z 01007KT M08/M14 A3059 RMK A01 T10751136  RH  062%=      5-min Rain = 0
KUM1 120248Z 01007KT M07/M14 A3059 RMK A01 T10741135  RH  062%=      5-min Rain = 0
KUM1 120249Z 01007KT M07/M14 A3058 RMK A01 T10741135  RH  062%=      5-min Rain = 0
KUM1 120250Z 01007KT M07/M14 A3058 RMK A01 T10741135  RH  062%=      5-min Rain = 0
KUM1 120251Z 01007KT M07/M14 A3058 RMK A01 T10741135  RH  062%=      5-min Rain = 0
KUM1 120252Z 01007KT M07/M14 A3058 RMK A01 T10741135  RH  062%=      5-min Rain = 0
KUM1 120253Z 01007KT M07/M13 A3058 RMK A01 T10741134  RH  062%=      5-min Rain = 0
KUM1 120254Z 01007KT M07/M13 A3058 RMK A01 T10741134  RH  062%=      5-min Rain = 0
KUM1 120255Z 01007KT M07/M14 A3058 RMK A01 T10741135  RH  062%=      5-min Rain = 0
KUM1 120256Z 02007KT M08/M14 A3058 RMK A01 T10751135  RH  062%=      5-min Rain = 0
KUM1 120257Z 02007KT M08/M14 A3058 RMK A01 T10751135  RH  062%=      5-min Rain = 0
KUM1 120258Z 02007KT M08/M14 A3058 RMK A01 T10751135  RH  062%=      5-min Rain = 0
KUM1 120259Z 02007KT M08/M14 A3058 RMK A01 T10751135  RH  062%=      5-min Rain = 0
KUM1 120300Z 02007KT M08/M14 A3058 RMK A01 T10761135  RH  063%=      5-min Rain = 0
KUM1 120301Z 03007KT M08/M14 A3058 RMK A01 T10771136  RH  063%=      5-min Rain = 0
KUM1 120302Z 02008KT M08/M14 A3058 RMK A01 T10771136  RH  063%=      5-min Rain = 0
KUM1 120303Z 02008KT M08/M14 A3058 RMK A01 T10771135  RH  063%=      5-min Rain = 0
KUM1 120304Z 02008KT M08/M14 A3058 RMK A01 T10761135  RH  063%=      5-min Rain = 0
KUM1 120305Z 02008KT M08/M14 A3058 RMK A01 T10751135  RH  062%=      5-min Rain = 0
KUM1 120306Z 03008KT M08/M14 A3058 RMK A01 T10751135  RH  062%=      5-min Rain = 0
KUM1 120307Z 02008KT M07/M14 A3058 RMK A01 T10741135  RH  062%=      5-min Rain = 0
KUM1 120308Z 02007KT M07/M14 A3058 RMK A01 T10741135  RH  062%=      5-min Rain = 0
KUM1 120309Z 02008KT M07/M14 A3058 RMK A01 T10741135  RH  062%=      5-min Rain = 0
KUM1 120310Z 02008KT M07/M14 A3058 RMK A01 T10741135  RH  062%=      5-min Rain = 0
KUM1 120311Z 02009KT M07/M14 A3058 RMK A01 T10741135  RH  062%=      5-min Rain = 0
KUM1 120312Z 02008KT M07/M14 A3058 RMK A01 T10741135  RH  062%=      5-min Rain = 0
KUM1 120313Z 02009KT M07/M14 A3058 RMK A01 T10741135  RH  062%=      5-min Rain = 0
KUM1 120314Z 02010KT M07/M14 A3058 RMK A01 T10741135  RH  062%=      5-min Rain = 0
KUM1 120315Z 01010KT M07/M14 A3058 RMK A01 T10741135  RH  062%=      5-min Rain = 0
KUM1 120316Z 02010KT M07/M13 A3058 RMK A01 T10731134  RH  062%=      5-min Rain = 0
KUM1 120317Z 02010KT M07/M13 A3058 RMK A01 T10731134  RH  061%=      5-min Rain = 0
KUM1 120318Z 02010KT M07/M14 A3058 RMK A01 T10731135  RH  061%=      5-min Rain = 0
KUM1 120319Z 02010KT M07/M14 A3058 RMK A01 T10731135  RH  061%=      5-min Rain = 0
KUM1 120320Z 02010KT M07/M14 A3058 RMK A01 T10721135  RH  061%=      5-min Rain = 0
KUM1 120321Z 02009KT M07/M14 A3058 RMK A01 T10721135  RH  061%=      5-min Rain = 0
KUM1 120322Z 02008KT M07/M14 A3058 RMK A01 T10721135  RH  061%=      5-min Rain = 0
KUM1 120323Z 02008KT M07/M14 A3058 RMK A01 T10731136  RH  061%=      5-min Rain = 0
KUM1 120324Z 02010KT M07/M14 A3058 RMK A01 T10731136  RH  061%=      5-min Rain = 0
KUM1 120325Z 02010KT M07/M14 A3058 RMK A01 T10741135  RH  061%=      5-min Rain = 0
KUM1 120326Z 02010KT M07/M14 A3058 RMK A01 T10741135  RH  061%=      5-min Rain = 0
KUM1 120327Z 02010KT M07/M14 A3058 RMK A01 T10731135  RH  061%=      5-min Rain = 0
KUM1 120328Z 02009KT M07/M14 A3058 RMK A01 T10731135  RH  061%=      5-min Rain = 0
KUM1 120329Z 02008KT M07/M14 A3058 RMK A01 T10731135  RH  061%=      5-min Rain = 0
KUM1 120330Z 02008KT M07/M14 A3058 RMK A01 T10741135  RH  062%=      5-min Rain = 0
KUM1 120331Z 02009KT M08/M14 A3058 RMK A01 T10751136  RH  062%=      5-min Rain = 0
KUM1 120332Z 02008KT M07/M14 A3058 RMK A01 T10741135  RH  062%=      5-min Rain = 0
KUM1 120333Z 02008KT M07/M14 A3058 RMK A01 T10741135  RH  062%=      5-min Rain = 0
KUM1 120334Z 02008KT M08/M14 A3058 RMK A01 T10751135  RH  062%=      5-min Rain = 0
KUM1 120335Z 02009KT M08/M14 A3058 RMK A01 T10751135  RH  062%=      5-min Rain = 0
KUM1 120336Z 02008KT M08/M14 A3058 RMK A01 T10751135  RH  062%=      5-min Rain = 0
KUM1 120337Z 02009KT M08/M14 A3058 RMK A01 T10751135  RH  062%=      5-min Rain = 0
KUM1 120338Z 02008KT M07/M14 A3058 RMK A01 T10741135  RH  062%=      5-min Rain = 0
KUM1 120339Z 02009KT M08/M14 A3058 RMK A01 T10751135  RH  062%=      5-min Rain = 0
KUM1 120340Z 02009KT M07/M14 A3058 RMK A01 T10741135  RH  062%=      5-min Rain = 0
KUM1 120341Z 02008KT M07/M13 A3058 RMK A01 T10741134  RH  062%=      5-min Rain = 0
KUM1 120342Z 02009KT M07/M14 A3058 RMK A01 T10741135  RH  062%=      5-min Rain = 0
KUM1 120343Z 02008KT M07/M14 A3058 RMK A01 T10741135  RH  062%=      5-min Rain = 0
KUM1 120344Z 02008KT M08/M14 A3058 RMK A01 T10751135  RH  062%=      5-min Rain = 0
KUM1 120345Z 02009KT M08/M14 A3058 RMK A01 T10751135  RH  062%=      5-min Rain = 0
KUM1 120346Z 02009KT M08/M14 A3058 RMK A01 T10751135  RH  062%=      5-min Rain = 0
KUM1 120347Z 02009KT M08/M14 A3058 RMK A01 T10751135  RH  062%=      5-min Rain = 0
KUM1 120348Z 02009KT M08/M14 A3058 RMK A01 T10751135  RH  062%=      5-min Rain = 0
KUM1 120349Z 02009KT M08/M14 A3058 RMK A01 T10761135  RH  062%=      5-min Rain = 0
KUM1 120350Z 02009KT M08/M14 A3058 RMK A01 T10761135  RH  062%=      5-min Rain = 0
KUM1 120351Z 02008KT M08/M14 A3058 RMK A01 T10761136  RH  062%=      5-min Rain = 0
KUM1 120352Z 02008KT M08/M14 A3058 RMK A01 T10761136  RH  063%=      5-min Rain = 0
KUM1 120353Z 03008KT M08/M14 A3058 RMK A01 T10771136  RH  063%=      5-min Rain = 0
KUM1 120354Z 03008KT M08/M14 A3058 RMK A01 T10771136  RH  063%=      5-min Rain = 0
KUM1 120355Z 03008KT M08/M14 A3058 RMK A01 T10781135  RH  063%=      5-min Rain = 0
KUM1 120356Z 03008KT M08/M14 A3059 RMK A01 T10781135  RH  064%=      5-min Rain = 0
KUM1 120357Z 03009KT M08/M14 A3059 RMK A01 T10791135  RH  064%=      5-min Rain = 0
KUM1 120358Z 03009KT M08/M14 A3059 RMK A01 T10781135  RH  064%=      5-min Rain = 0
KUM1 120359Z 03008KT M08/M14 A3059 RMK A01 T10781135  RH  064%=      5-min Rain = 0
KUM1 120400Z 03009KT M08/M14 A3058 RMK A01 T10791135  RH  064%=      5-min Rain = 0
KUM1 120401Z 03009KT M08/M14 A3058 RMK A01 T10791135  RH  064%=      5-min Rain = 0
KUM1 120402Z 03009KT M08/M14 A3058 RMK A01 T10791135  RH  064%=      5-min Rain = 0
KUM1 120403Z 03010KT M08/M14 A3058 RMK A01 T10791135  RH  064%=      5-min Rain = 0
KUM1 120404Z 03009KT M08/M14 A3058 RMK A01 T10801135  RH  064%=      5-min Rain = 0
KUM1 120405Z 03009KT M08/M14 A3058 RMK A01 T10801135  RH  064%=      5-min Rain = 0
KUM1 120406Z 03010KT M08/M14 A3058 RMK A01 T10791135  RH  064%=      5-min Rain = 0
KUM1 120407Z 03011KT M08/M14 A3058 RMK A01 T10791135  RH  065%=      5-min Rain = 0
KUM1 120408Z 02011KT M08/M13 A3058 RMK A01 T10801134  RH  065%=      5-min Rain = 0
KUM1 120409Z 03011KT M08/M13 A3058 RMK A01 T10791134  RH  065%=      5-min Rain = 0
KUM1 120410Z 02011KT M08/M13 A3058 RMK A01 T10791134  RH  065%=      5-min Rain = 0
KUM1 120411Z 02011KT M08/M14 A3058 RMK A01 T10801135  RH  065%=      5-min Rain = 0
KUM1 120412Z 02011KT M08/M13 A3058 RMK A01 T10791134  RH  065%=      5-min Rain = 0
KUM1 120413Z 02012KT M08/M13 A3058 RMK A01 T10791134  RH  065%=      5-min Rain = 0
KUM1 120414Z 02011KT M08/M14 A3058 RMK A01 T10801135  RH  065%=      5-min Rain = 0
KUM1 120415Z 02012KT M08/M14 A3058 RMK A01 T10801135  RH  065%=      5-min Rain = 0
KUM1 120416Z 02011KT M08/M13 A3058 RMK A01 T10791134  RH  065%=      5-min Rain = 0
KUM1 120417Z 02011KT M08/M14 A3058 RMK A01 T10791135  RH  065%=      5-min Rain = 0
KUM1 120418Z 02012KT M08/M14 A3058 RMK A01 T10801135  RH  064%=      5-min Rain = 0
KUM1 120419Z 02011KT M08/M14 A3058 RMK A01 T10791135  RH  064%=      5-min Rain = 0
KUM1 120420Z 02011KT M08/M14 A3058 RMK A01 T10791135  RH  064%=      5-min Rain = 0
KUM1 120421Z 02012KT M08/M14 A3058 RMK A01 T10791136  RH  064%=      5-min Rain = 0
KUM1 120422Z 02012KT M08/M14 A3058 RMK A01 T10801136  RH  064%=      5-min Rain = 0
KUM1 120423Z 03012KT M08/M14 A3058 RMK A01 T10801136  RH  064%=      5-min Rain = 0
KUM1 120424Z 03012KT M08/M14 A3058 RMK A01 T10801136  RH  064%=      5-min Rain = 0
KUM1 120425Z 03012KT M08/M14 A3058 RMK A01 T10801136  RH  064%=      5-min Rain = 0
KUM1 120426Z 03011KT M08/M14 A3058 RMK A01 T10801136  RH  064%=      5-min Rain = 0
KUM1 120427Z 03011KT M08/M14 A3058 RMK A01 T10801136  RH  064%=      5-min Rain = 0
KUM1 120428Z 03011KT M08/M14 A3058 RMK A01 T10801136  RH  064%=      5-min Rain = 0
KUM1 120429Z 03011KT M08/M14 A3058 RMK A01 T10801136  RH  064%=      5-min Rain = 0
KUM1 120430Z 03011KT M08/M14 A3058 RMK A01 T10811136  RH  064%=      5-min Rain = 0
KUM1 120431Z 03011KT M08/M14 A3058 RMK A01 T10801136  RH  064%=      5-min Rain = 0
KUM1 120432Z 02011KT M08/M14 A3058 RMK A01 T10801136  RH  064%=      5-min Rain = 0
KUM1 120433Z 02011KT M08/M14 A3058 RMK A01 T10801136  RH  064%=      5-min Rain = 0
KUM1 120434Z 02010KT M08/M14 A3059 RMK A01 T10801136  RH  064%=      5-min Rain = 0
KUM1 120435Z 02011KT M08/M14 A3059 RMK A01 T10801136  RH  064%=      5-min Rain = 0
KUM1 120436Z 02010KT M08/M14 A3059 RMK A01 T10801137  RH  064%=      5-min Rain = 0
KUM1 120437Z 02010KT M08/M14 A3059 RMK A01 T10811137  RH  064%=      5-min Rain = 0
KUM1 120438Z 02012KT M08/M14 A3058 RMK A01 T10801137  RH  064%=      5-min Rain = 0
KUM1 120439Z 02012KT M08/M14 A3058 RMK A01 T10801137  RH  063%=      5-min Rain = 0
KUM1 120440Z 02012KT M08/M14 A3058 RMK A01 T10801138  RH  063%=      5-min Rain = 0
KUM1 120441Z 02012KT M08/M14 A3058 RMK A01 T10801138  RH  063%=      5-min Rain = 0
KUM1 120442Z 02012KT M08/M14 A3058 RMK A01 T10801138  RH  063%=      5-min Rain = 0
KUM1 120443Z 02013KT M08/M14 A3058 RMK A01 T10791138  RH  063%=      5-min Rain = 0
KUM1 120444Z 02012KT M08/M14 A3058 RMK A01 T10791138  RH  063%=      5-min Rain = 0
KUM1 120445Z 02012KT M08/M14 A3058 RMK A01 T10801139  RH  063%=      5-min Rain = 0
KUM1 120446Z 02012KT M08/M14 A3058 RMK A01 T10801139  RH  063%=      5-min Rain = 0
KUM1 120447Z 02014KT M08/M14 A3058 RMK A01 T10801138  RH  063%=      5-min Rain = 0
KUM1 120448Z 02013KT M08/M14 A3058 RMK A01 T10801139  RH  062%=      5-min Rain = 0
KUM1 120449Z 02012KT M08/M14 A3058 RMK A01 T10791139  RH  062%=      5-min Rain = 0
KUM1 120450Z 03012KT M08/M14 A3058 RMK A01 T10791140  RH  062%=      5-min Rain = 0
KUM1 120451Z 03012KT M08/M14 A3058 RMK A01 T10791140  RH  062%=      5-min Rain = 0
KUM1 120452Z 03011KT M08/M14 A3058 RMK A01 T10791139  RH  062%=      5-min Rain = 0
KUM1 120453Z 03011KT M08/M14 A3058 RMK A01 T10801140  RH  062%=      5-min Rain = 0
KUM1 120454Z 03010KT M08/M14 A3058 RMK A01 T10801140  RH  062%=      5-min Rain = 0
KUM1 120455Z 03011KT M08/M14 A3058 RMK A01 T10811140  RH  062%=      5-min Rain = 0
KUM1 120456Z 03012KT M08/M14 A3058 RMK A01 T10811140  RH  062%=      5-min Rain = 0
KUM1 120457Z 03012KT M08/M14 A3059 RMK A01 T10811140  RH  062%=      5-min Rain = 0
KUM1 120458Z 03012KT M08/M14 A3059 RMK A01 T10811141  RH  062%=      5-min Rain = 0
KUM1 120459Z 03012KT M08/M14 A3059 RMK A01 T10811141  RH  062%=      5-min Rain = 0
KUM1 120500Z 03010KT M08/M14 A3059 RMK A01 T10811141  RH  062%=      5-min Rain = 0
KUM1 120501Z 02011KT M08/M14 A3058 RMK A01 T10811141  RH  062%=      5-min Rain = 0
KUM1 120502Z 02010KT M08/M14 A3058 RMK A01 T10821141  RH  062%=      5-min Rain = 0
KUM1 120503Z 03011KT M08/M14 A3058 RMK A01 T10821141  RH  062%=      5-min Rain = 0
KUM1 120504Z 02011KT M08/M14 A3058 RMK A01 T10821141  RH  063%=      5-min Rain = 0
KUM1 120505Z 02011KT M08/M14 A3059 RMK A01 T10831141  RH  063%=      5-min Rain = 0
KUM1 120506Z 02011KT M08/M14 A3059 RMK A01 T10831141  RH  063%=      5-min Rain = 0
KUM1 120507Z 02011KT M08/M14 A3059 RMK A01 T10831141  RH  063%=      5-min Rain = 0
KUM1 120508Z 02010KT M08/M14 A3059 RMK A01 T10831141  RH  063%=      5-min Rain = 0
KUM1 120509Z 02010KT M08/M14 A3059 RMK A01 T10841141  RH  063%=      5-min Rain = 0
KUM1 120510Z 03010KT M08/M14 A3059 RMK A01 T10841141  RH  063%=      5-min Rain = 0
KUM1 120511Z 03010KT M08/M14 A3059 RMK A01 T10841141  RH  064%=      5-min Rain = 0
KUM1 120512Z 03009KT M09/M14 A3059 RMK A01 T10851141  RH  064%=      5-min Rain = 0
KUM1 120513Z 03009KT M09/M14 A3059 RMK A01 T10851141  RH  064%=      5-min Rain = 0
KUM1 120514Z 03009KT M09/M14 A3059 RMK A01 T10851141  RH  064%=      5-min Rain = 0
KUM1 120515Z 03009KT M09/M14 A3059 RMK A01 T10861141  RH  064%=      5-min Rain = 0
KUM1 120516Z 03009KT M09/M14 A3059 RMK A01 T10861141  RH  064%=      5-min Rain = 0
KUM1 120517Z 03009KT M09/M14 A3059 RMK A01 T10871141  RH  065%=      5-min Rain = 0
KUM1 120518Z 03009KT M09/M14 A3059 RMK A01 T10871141  RH  065%=      5-min Rain = 0
KUM1 120519Z 03009KT M09/M14 A3059 RMK A01 T10871141  RH  065%=      5-min Rain = 0
KUM1 120520Z 03008KT M09/M14 A3059 RMK A01 T10871141  RH  065%=      5-min Rain = 0
KUM1 120521Z 03009KT M09/M14 A3059 RMK A01 T10881142  RH  065%=      5-min Rain = 0
KUM1 120522Z 02008KT M09/M14 A3059 RMK A01 T10881141  RH  065%=      5-min Rain = 0
KUM1 120523Z 02009KT M09/M14 A3059 RMK A01 T10891141  RH  066%=      5-min Rain = 0
KUM1 120524Z 02009KT M09/M14 A3058 RMK A01 T10891141  RH  066%=      5-min Rain = 0
KUM1 120525Z 02009KT M09/M14 A3058 RMK A01 T10901141  RH  066%=      5-min Rain = 0
KUM1 120526Z 02008KT M09/M14 A3059 RMK A01 T10901141  RH  066%=      5-min Rain = 0
KUM1 120527Z 02008KT M09/M14 A3059 RMK A01 T10901141  RH  066%=      5-min Rain = 0
KUM1 120528Z 02008KT M09/M14 A3059 RMK A01 T10901142  RH  066%=      5-min Rain = 0
KUM1 120529Z 02007KT M09/M14 A3059 RMK A01 T10911142  RH  067%=      5-min Rain = 0
KUM1 120530Z 02007KT M09/M14 A3059 RMK A01 T10911142  RH  067%=      5-min Rain = 0
KUM1 120531Z 02007KT M09/M14 A3059 RMK A01 T10911142  RH  067%=      5-min Rain = 0
KUM1 120532Z 02007KT M09/M14 A3059 RMK A01 T10921142  RH  067%=      5-min Rain = 0
KUM1 120533Z 03006KT M09/M14 A3059 RMK A01 T10921142  RH  067%=      5-min Rain = 0
KUM1 120534Z 03006KT M09/M14 A3059 RMK A01 T10931142  RH  067%=      5-min Rain = 0
KUM1 120535Z 03006KT M09/M14 A3059 RMK A01 T10931142  RH  067%=      5-min Rain = 0
KUM1 120536Z 02005KT M09/M14 A3059 RMK A01 T10941143  RH  068%=      5-min Rain = 0
KUM1 120537Z 02005KT M09/M14 A3059 RMK A01 T10941143  RH  068%=      5-min Rain = 0
KUM1 120538Z 02005KT M09/M14 A3059 RMK A01 T10941143  RH  068%=      5-min Rain = 0
KUM1 120539Z 02005KT M10/M14 A3059 RMK A01 T10951143  RH  068%=      5-min Rain = 0
KUM1 120540Z 02005KT M10/M14 A3059 RMK A01 T10951143  RH  068%=      5-min Rain = 0
KUM1 120541Z 02004KT M10/M14 A3059 RMK A01 T10951143  RH  068%=      5-min Rain = 0
KUM1 120542Z 01004KT M10/M14 A306 RMK A01 T10961143  RH  068%=      5-min Rain = 0
KUM1 120543Z 01004KT M10/M14 A306 RMK A01 T10961143  RH  068%=      5-min Rain = 0
KUM1 120544Z 01003KT M10/M14 A306 RMK A01 T10961143  RH  068%=      5-min Rain = 0
KUM1 120545Z 00003KT M10/M14 A306 RMK A01 T10961143  RH  068%=      5-min Rain = 0
KUM1 120546Z 01002KT M10/M14 A306 RMK A01 T10961143  RH  068%=      5-min Rain = 0
KUM1 120547Z 01002KT M10/M14 A306 RMK A01 T10961143  RH  068%=      5-min Rain = 0
KUM1 120548Z 00003KT M10/M14 A306 RMK A01 T10951143  RH  068%=      5-min Rain = 0
KUM1 120549Z 00002KT M10/M14 A306 RMK A01 T10951143  RH  068%=      5-min Rain = 0
KUM1 120550Z 01003KT M10/M14 A306 RMK A01 T10951143  RH  068%=      5-min Rain = 0
KUM1 120551Z 01003KT M09/M14 A306 RMK A01 T10941142  RH  068%=      5-min Rain = 0
KUM1 120552Z 01004KT M09/M14 A306 RMK A01 T10941142  RH  068%=      5-min Rain = 0
KUM1 120553Z 01005KT M09/M14 A306 RMK A01 T10941143  RH  067%=      5-min Rain = 0
KUM1 120554Z 01005KT M09/M14 A3059 RMK A01 T10931143  RH  067%=      5-min Rain = 0
KUM1 120555Z 02005KT M09/M14 A3059 RMK A01 T10931143  RH  067%=      5-min Rain = 0
KUM1 120556Z 01005KT M09/M14 A3059 RMK A01 T10941143  RH  067%=      5-min Rain = 0
KUM1 120557Z 01005KT M10/M14 A3059 RMK A01 T10951144  RH  068%=      5-min Rain = 0
KUM1 120558Z 01006KT M10/M14 A3059 RMK A01 T10961144  RH  068%=      5-min Rain = 0
KUM1 120559Z 01006KT M10/M14 A3059 RMK A01 T10961144  RH  068%=      5-min Rain = 0

Page generated in 0.0712 seconds.